<?xml version="1.0" encoding="UTF-8" standalone="no" ?>
<gpx xmlns="http://www.topografix.com/GPX/1/1" xmlns:xsi="http://www.w3.org/2001/XMLSchema-instance" xsi:schemaLocation="http://www.topografix.com/GPX/1/1 http://www.topografix.com/GPX/1/1/gpx.xsd" version="1.1" creator="VisuGPX - https://www.visugpx.com">
  <metadata>
    <name>De Villard-Bas au Col de Roche-Cline</name>
  </metadata>
  <trk>
    <name><![CDATA[De Villard-Bas au Col de Roche-Cline_1]]></name>
    <trkseg>
      <trkpt lat="44.23939" lon="6.64483">
        <ele>1681</ele>
        <time>2021-08-18T08:04:23Z</time>
      </trkpt>
      <trkpt lat="44.23928" lon="6.64518">
        <ele>1694</ele>
        <time>2021-08-18T08:06:54Z</time>
      </trkpt>
      <trkpt lat="44.23926" lon="6.64531">
        <ele>1694</ele>
        <time>2021-08-18T08:07:03Z</time>
      </trkpt>
      <trkpt lat="44.2392" lon="6.64541">
        <ele>1694</ele>
        <time>2021-08-18T08:07:12Z</time>
      </trkpt>
      <trkpt lat="44.23909" lon="6.64551">
        <ele>1694</ele>
        <time>2021-08-18T08:07:22Z</time>
      </trkpt>
      <trkpt lat="44.23899" lon="6.6456">
        <ele>1693</ele>
        <time>2021-08-18T08:07:32Z</time>
      </trkpt>
      <trkpt lat="44.2389" lon="6.6457">
        <ele>1693</ele>
        <time>2021-08-18T08:07:42Z</time>
      </trkpt>
      <trkpt lat="44.2388" lon="6.64578">
        <ele>1693</ele>
        <time>2021-08-18T08:07:51Z</time>
      </trkpt>
      <trkpt lat="44.23872" lon="6.64589">
        <ele>1693</ele>
        <time>2021-08-18T08:08:00Z</time>
      </trkpt>
      <trkpt lat="44.2386" lon="6.64596">
        <ele>1690</ele>
        <time>2021-08-18T08:08:09Z</time>
      </trkpt>
      <trkpt lat="44.23853" lon="6.64607">
        <ele>1688</ele>
        <time>2021-08-18T08:08:18Z</time>
      </trkpt>
      <trkpt lat="44.23844" lon="6.64619">
        <ele>1688</ele>
        <time>2021-08-18T08:08:27Z</time>
      </trkpt>
      <trkpt lat="44.23836" lon="6.6463">
        <ele>1687</ele>
        <time>2021-08-18T08:08:38Z</time>
      </trkpt>
      <trkpt lat="44.2383" lon="6.64641">
        <ele>1687</ele>
        <time>2021-08-18T08:08:47Z</time>
      </trkpt>
      <trkpt lat="44.23822" lon="6.64653">
        <ele>1687</ele>
        <time>2021-08-18T08:08:56Z</time>
      </trkpt>
      <trkpt lat="44.23815" lon="6.64666">
        <ele>1686</ele>
        <time>2021-08-18T08:09:07Z</time>
      </trkpt>
      <trkpt lat="44.23806" lon="6.64671">
        <ele>1686</ele>
        <time>2021-08-18T08:09:16Z</time>
      </trkpt>
      <trkpt lat="44.23795" lon="6.64673">
        <ele>1686</ele>
        <time>2021-08-18T08:09:25Z</time>
      </trkpt>
      <trkpt lat="44.23785" lon="6.64674">
        <ele>1686</ele>
        <time>2021-08-18T08:09:34Z</time>
      </trkpt>
      <trkpt lat="44.23772" lon="6.64678">
        <ele>1686</ele>
        <time>2021-08-18T08:09:45Z</time>
      </trkpt>
      <trkpt lat="44.23762" lon="6.64686">
        <ele>1686</ele>
        <time>2021-08-18T08:09:54Z</time>
      </trkpt>
      <trkpt lat="44.23754" lon="6.64695">
        <ele>1686</ele>
        <time>2021-08-18T08:10:05Z</time>
      </trkpt>
      <trkpt lat="44.23747" lon="6.64698">
        <ele>1686</ele>
        <time>2021-08-18T08:10:14Z</time>
      </trkpt>
      <trkpt lat="44.23741" lon="6.64702">
        <ele>1686</ele>
        <time>2021-08-18T08:10:24Z</time>
      </trkpt>
      <trkpt lat="44.23734" lon="6.64708">
        <ele>1686</ele>
        <time>2021-08-18T08:10:34Z</time>
      </trkpt>
      <trkpt lat="44.23727" lon="6.64711">
        <ele>1684</ele>
        <time>2021-08-18T08:10:43Z</time>
      </trkpt>
      <trkpt lat="44.23719" lon="6.64714">
        <ele>1683</ele>
        <time>2021-08-18T08:10:54Z</time>
      </trkpt>
      <trkpt lat="44.2371" lon="6.64717">
        <ele>1682</ele>
        <time>2021-08-18T08:11:03Z</time>
      </trkpt>
      <trkpt lat="44.23701" lon="6.64722">
        <ele>1681</ele>
        <time>2021-08-18T08:11:13Z</time>
      </trkpt>
      <trkpt lat="44.23693" lon="6.6473">
        <ele>1680</ele>
        <time>2021-08-18T08:11:24Z</time>
      </trkpt>
      <trkpt lat="44.23685" lon="6.64741">
        <ele>1680</ele>
        <time>2021-08-18T08:11:34Z</time>
      </trkpt>
      <trkpt lat="44.23679" lon="6.64752">
        <ele>1680</ele>
        <time>2021-08-18T08:11:46Z</time>
      </trkpt>
      <trkpt lat="44.23674" lon="6.64755">
        <ele>1680</ele>
        <time>2021-08-18T08:11:57Z</time>
      </trkpt>
      <trkpt lat="44.23668" lon="6.64761">
        <ele>1677</ele>
        <time>2021-08-18T08:12:06Z</time>
      </trkpt>
      <trkpt lat="44.23662" lon="6.6477">
        <ele>1676</ele>
        <time>2021-08-18T08:12:17Z</time>
      </trkpt>
      <trkpt lat="44.23658" lon="6.64778">
        <ele>1675</ele>
        <time>2021-08-18T08:12:27Z</time>
      </trkpt>
      <trkpt lat="44.23655" lon="6.64787">
        <ele>1674</ele>
        <time>2021-08-18T08:12:36Z</time>
      </trkpt>
      <trkpt lat="44.23647" lon="6.64792">
        <ele>1674</ele>
        <time>2021-08-18T08:12:47Z</time>
      </trkpt>
      <trkpt lat="44.23639" lon="6.648">
        <ele>1674</ele>
        <time>2021-08-18T08:12:56Z</time>
      </trkpt>
      <trkpt lat="44.23632" lon="6.64809">
        <ele>1674</ele>
        <time>2021-08-18T08:13:06Z</time>
      </trkpt>
      <trkpt lat="44.23625" lon="6.64818">
        <ele>1674</ele>
        <time>2021-08-18T08:13:17Z</time>
      </trkpt>
      <trkpt lat="44.2362" lon="6.6483">
        <ele>1674</ele>
        <time>2021-08-18T08:13:27Z</time>
      </trkpt>
      <trkpt lat="44.23615" lon="6.64842">
        <ele>1674</ele>
        <time>2021-08-18T08:13:37Z</time>
      </trkpt>
      <trkpt lat="44.23609" lon="6.64845">
        <ele>1674</ele>
        <time>2021-08-18T08:13:46Z</time>
      </trkpt>
      <trkpt lat="44.23607" lon="6.64848">
        <ele>1674</ele>
        <time>2021-08-18T08:13:55Z</time>
      </trkpt>
      <trkpt lat="44.23601" lon="6.64851">
        <ele>1674</ele>
        <time>2021-08-18T08:14:05Z</time>
      </trkpt>
      <trkpt lat="44.23597" lon="6.64853">
        <ele>1672</ele>
        <time>2021-08-18T08:14:14Z</time>
      </trkpt>
      <trkpt lat="44.23598" lon="6.64844">
        <ele>1670</ele>
        <time>2021-08-18T08:14:23Z</time>
      </trkpt>
      <trkpt lat="44.23596" lon="6.64835">
        <ele>1670</ele>
        <time>2021-08-18T08:14:35Z</time>
      </trkpt>
      <trkpt lat="44.23593" lon="6.64841">
        <ele>1668</ele>
        <time>2021-08-18T08:14:45Z</time>
      </trkpt>
      <trkpt lat="44.23592" lon="6.64835">
        <ele>1667</ele>
        <time>2021-08-18T08:14:55Z</time>
      </trkpt>
      <trkpt lat="44.23592" lon="6.64825">
        <ele>1666</ele>
        <time>2021-08-18T08:15:05Z</time>
      </trkpt>
      <trkpt lat="44.23588" lon="6.64832">
        <ele>1665</ele>
        <time>2021-08-18T08:15:14Z</time>
      </trkpt>
      <trkpt lat="44.23584" lon="6.64839">
        <ele>1665</ele>
        <time>2021-08-18T08:15:24Z</time>
      </trkpt>
      <trkpt lat="44.23583" lon="6.64843">
        <ele>1663</ele>
        <time>2021-08-18T08:15:35Z</time>
      </trkpt>
      <trkpt lat="44.2358" lon="6.64849">
        <ele>1662</ele>
        <time>2021-08-18T08:15:44Z</time>
      </trkpt>
      <trkpt lat="44.23576" lon="6.64853">
        <ele>1661</ele>
        <time>2021-08-18T08:15:54Z</time>
      </trkpt>
      <trkpt lat="44.23571" lon="6.64846">
        <ele>1661</ele>
        <time>2021-08-18T08:16:06Z</time>
      </trkpt>
      <trkpt lat="44.23571" lon="6.64841">
        <ele>1661</ele>
        <time>2021-08-18T08:16:15Z</time>
      </trkpt>
      <trkpt lat="44.2357" lon="6.64834">
        <ele>1661</ele>
        <time>2021-08-18T08:16:29Z</time>
      </trkpt>
      <trkpt lat="44.23569" lon="6.64832">
        <ele>1661</ele>
        <time>2021-08-18T08:16:43Z</time>
      </trkpt>
      <trkpt lat="44.23572" lon="6.64837">
        <ele>1661</ele>
        <time>2021-08-18T08:16:52Z</time>
      </trkpt>
      <trkpt lat="44.23575" lon="6.64837">
        <ele>1661</ele>
        <time>2021-08-18T08:17:04Z</time>
      </trkpt>
      <trkpt lat="44.23579" lon="6.64829">
        <ele>1661</ele>
        <time>2021-08-18T08:17:14Z</time>
      </trkpt>
      <trkpt lat="44.23576" lon="6.64827">
        <ele>1661</ele>
        <time>2021-08-18T08:17:23Z</time>
      </trkpt>
      <trkpt lat="44.23578" lon="6.64822">
        <ele>1661</ele>
        <time>2021-08-18T08:17:32Z</time>
      </trkpt>
      <trkpt lat="44.23574" lon="6.64821">
        <ele>1661</ele>
        <time>2021-08-18T08:17:43Z</time>
      </trkpt>
      <trkpt lat="44.23569" lon="6.64822">
        <ele>1661</ele>
        <time>2021-08-18T08:17:54Z</time>
      </trkpt>
      <trkpt lat="44.23566" lon="6.64823">
        <ele>1661</ele>
        <time>2021-08-18T08:18:03Z</time>
      </trkpt>
      <trkpt lat="44.23563" lon="6.64827">
        <ele>1659</ele>
        <time>2021-08-18T08:18:16Z</time>
      </trkpt>
      <trkpt lat="44.23559" lon="6.64823">
        <ele>1659</ele>
        <time>2021-08-18T08:18:25Z</time>
      </trkpt>
      <trkpt lat="44.2356" lon="6.64816">
        <ele>1659</ele>
        <time>2021-08-18T08:18:35Z</time>
      </trkpt>
      <trkpt lat="44.23555" lon="6.6481">
        <ele>1659</ele>
        <time>2021-08-18T08:18:46Z</time>
      </trkpt>
      <trkpt lat="44.23549" lon="6.64813">
        <ele>1659</ele>
        <time>2021-08-18T08:18:57Z</time>
      </trkpt>
      <trkpt lat="44.23543" lon="6.64818">
        <ele>1659</ele>
        <time>2021-08-18T08:19:09Z</time>
      </trkpt>
      <trkpt lat="44.23536" lon="6.64822">
        <ele>1659</ele>
        <time>2021-08-18T08:19:21Z</time>
      </trkpt>
      <trkpt lat="44.23532" lon="6.64824">
        <ele>1661</ele>
        <time>2021-08-18T08:19:30Z</time>
      </trkpt>
      <trkpt lat="44.23527" lon="6.64831">
        <ele>1662</ele>
        <time>2021-08-18T08:19:40Z</time>
      </trkpt>
      <trkpt lat="44.23523" lon="6.64835">
        <ele>1662</ele>
        <time>2021-08-18T08:19:49Z</time>
      </trkpt>
      <trkpt lat="44.23517" lon="6.64837">
        <ele>1662</ele>
        <time>2021-08-18T08:20:00Z</time>
      </trkpt>
      <trkpt lat="44.23513" lon="6.6484">
        <ele>1663</ele>
        <time>2021-08-18T08:20:11Z</time>
      </trkpt>
      <trkpt lat="44.23511" lon="6.6484">
        <ele>1664</ele>
        <time>2021-08-18T08:20:21Z</time>
      </trkpt>
      <trkpt lat="44.23508" lon="6.64839">
        <ele>1665</ele>
        <time>2021-08-18T08:20:33Z</time>
      </trkpt>
      <trkpt lat="44.23512" lon="6.64833">
        <ele>1670</ele>
        <time>2021-08-18T08:20:43Z</time>
      </trkpt>
      <trkpt lat="44.23514" lon="6.64826">
        <ele>1674</ele>
        <time>2021-08-18T08:20:55Z</time>
      </trkpt>
      <trkpt lat="44.23516" lon="6.64819">
        <ele>1678</ele>
        <time>2021-08-18T08:21:06Z</time>
      </trkpt>
      <trkpt lat="44.23523" lon="6.64813">
        <ele>1680</ele>
        <time>2021-08-18T08:21:17Z</time>
      </trkpt>
      <trkpt lat="44.23524" lon="6.64806">
        <ele>1682</ele>
        <time>2021-08-18T08:21:28Z</time>
      </trkpt>
      <trkpt lat="44.23525" lon="6.64801">
        <ele>1683</ele>
        <time>2021-08-18T08:21:38Z</time>
      </trkpt>
      <trkpt lat="44.23527" lon="6.64794">
        <ele>1687</ele>
        <time>2021-08-18T08:21:48Z</time>
      </trkpt>
      <trkpt lat="44.23531" lon="6.64788">
        <ele>1692</ele>
        <time>2021-08-18T08:21:59Z</time>
      </trkpt>
      <trkpt lat="44.23533" lon="6.64781">
        <ele>1692</ele>
        <time>2021-08-18T08:22:08Z</time>
      </trkpt>
      <trkpt lat="44.23532" lon="6.64774">
        <ele>1692</ele>
        <time>2021-08-18T08:22:18Z</time>
      </trkpt>
      <trkpt lat="44.23527" lon="6.64777">
        <ele>1692</ele>
        <time>2021-08-18T08:22:31Z</time>
      </trkpt>
      <trkpt lat="44.2352" lon="6.64783">
        <ele>1692</ele>
        <time>2021-08-18T08:22:40Z</time>
      </trkpt>
      <trkpt lat="44.23514" lon="6.64787">
        <ele>1692</ele>
        <time>2021-08-18T08:22:49Z</time>
      </trkpt>
      <trkpt lat="44.23516" lon="6.64791">
        <ele>1695</ele>
        <time>2021-08-18T08:23:03Z</time>
      </trkpt>
      <trkpt lat="44.2352" lon="6.64785">
        <ele>1697</ele>
        <time>2021-08-18T08:23:12Z</time>
      </trkpt>
      <trkpt lat="44.23519" lon="6.64777">
        <ele>1697</ele>
        <time>2021-08-18T08:23:21Z</time>
      </trkpt>
      <trkpt lat="44.23519" lon="6.64772">
        <ele>1700</ele>
        <time>2021-08-18T08:23:31Z</time>
      </trkpt>
      <trkpt lat="44.23518" lon="6.64765">
        <ele>1701</ele>
        <time>2021-08-18T08:23:42Z</time>
      </trkpt>
      <trkpt lat="44.23518" lon="6.64761">
        <ele>1704</ele>
        <time>2021-08-18T08:23:52Z</time>
      </trkpt>
      <trkpt lat="44.23518" lon="6.64753">
        <ele>1702</ele>
        <time>2021-08-18T08:24:03Z</time>
      </trkpt>
      <trkpt lat="44.23521" lon="6.64744">
        <ele>1701</ele>
        <time>2021-08-18T08:24:12Z</time>
      </trkpt>
      <trkpt lat="44.23517" lon="6.64747">
        <ele>1701</ele>
        <time>2021-08-18T08:24:21Z</time>
      </trkpt>
      <trkpt lat="44.23513" lon="6.64751">
        <ele>1701</ele>
        <time>2021-08-18T08:24:32Z</time>
      </trkpt>
      <trkpt lat="44.23514" lon="6.64742">
        <ele>1703</ele>
        <time>2021-08-18T08:24:44Z</time>
      </trkpt>
      <trkpt lat="44.23515" lon="6.64734">
        <ele>1709</ele>
        <time>2021-08-18T08:24:54Z</time>
      </trkpt>
      <trkpt lat="44.23519" lon="6.64725">
        <ele>1710</ele>
        <time>2021-08-18T08:25:04Z</time>
      </trkpt>
      <trkpt lat="44.23519" lon="6.64718">
        <ele>1713</ele>
        <time>2021-08-18T08:25:15Z</time>
      </trkpt>
      <trkpt lat="44.23516" lon="6.64717">
        <ele>1714</ele>
        <time>2021-08-18T08:25:24Z</time>
      </trkpt>
      <trkpt lat="44.23512" lon="6.64725">
        <ele>1714</ele>
        <time>2021-08-18T08:25:36Z</time>
      </trkpt>
      <trkpt lat="44.23508" lon="6.64733">
        <ele>1716</ele>
        <time>2021-08-18T08:25:47Z</time>
      </trkpt>
      <trkpt lat="44.23504" lon="6.6474">
        <ele>1716</ele>
        <time>2021-08-18T08:25:57Z</time>
      </trkpt>
      <trkpt lat="44.23503" lon="6.64745">
        <ele>1717</ele>
        <time>2021-08-18T08:26:07Z</time>
      </trkpt>
      <trkpt lat="44.235" lon="6.6475">
        <ele>1719</ele>
        <time>2021-08-18T08:26:16Z</time>
      </trkpt>
      <trkpt lat="44.23497" lon="6.64756">
        <ele>1721</ele>
        <time>2021-08-18T08:26:28Z</time>
      </trkpt>
      <trkpt lat="44.23494" lon="6.64761">
        <ele>1722</ele>
        <time>2021-08-18T08:26:38Z</time>
      </trkpt>
      <trkpt lat="44.2349" lon="6.64765">
        <ele>1724</ele>
        <time>2021-08-18T08:26:48Z</time>
      </trkpt>
      <trkpt lat="44.23487" lon="6.6477">
        <ele>1726</ele>
        <time>2021-08-18T08:26:57Z</time>
      </trkpt>
      <trkpt lat="44.23485" lon="6.64776">
        <ele>1727</ele>
        <time>2021-08-18T08:27:06Z</time>
      </trkpt>
      <trkpt lat="44.23484" lon="6.6478">
        <ele>1729</ele>
        <time>2021-08-18T08:27:15Z</time>
      </trkpt>
      <trkpt lat="44.23481" lon="6.64784">
        <ele>1731</ele>
        <time>2021-08-18T08:27:26Z</time>
      </trkpt>
      <trkpt lat="44.23475" lon="6.64783">
        <ele>1731</ele>
        <time>2021-08-18T08:27:37Z</time>
      </trkpt>
      <trkpt lat="44.2347" lon="6.64778">
        <ele>1731</ele>
        <time>2021-08-18T08:27:47Z</time>
      </trkpt>
      <trkpt lat="44.23476" lon="6.64771">
        <ele>1730</ele>
        <time>2021-08-18T08:27:57Z</time>
      </trkpt>
      <trkpt lat="44.2348" lon="6.64761">
        <ele>1732</ele>
        <time>2021-08-18T08:28:06Z</time>
      </trkpt>
      <trkpt lat="44.23477" lon="6.64759">
        <ele>1732</ele>
        <time>2021-08-18T08:28:21Z</time>
      </trkpt>
      <trkpt lat="44.23475" lon="6.64758">
        <ele>1732</ele>
        <time>2021-08-18T08:28:30Z</time>
      </trkpt>
      <trkpt lat="44.23473" lon="6.64753">
        <ele>1732</ele>
        <time>2021-08-18T08:28:55Z</time>
      </trkpt>
      <trkpt lat="44.23475" lon="6.64754">
        <ele>1732</ele>
        <time>2021-08-18T08:29:05Z</time>
      </trkpt>
      <trkpt lat="44.23472" lon="6.64755">
        <ele>1732</ele>
        <time>2021-08-18T08:29:14Z</time>
      </trkpt>
      <trkpt lat="44.23468" lon="6.6475">
        <ele>1732</ele>
        <time>2021-08-18T08:29:25Z</time>
      </trkpt>
      <trkpt lat="44.23464" lon="6.64743">
        <ele>1735</ele>
        <time>2021-08-18T08:29:36Z</time>
      </trkpt>
      <trkpt lat="44.23462" lon="6.64738">
        <ele>1735</ele>
        <time>2021-08-18T08:29:49Z</time>
      </trkpt>
      <trkpt lat="44.23464" lon="6.64736">
        <ele>1735</ele>
        <time>2021-08-18T08:30:01Z</time>
      </trkpt>
      <trkpt lat="44.23463" lon="6.64734">
        <ele>1737</ele>
        <time>2021-08-18T08:30:16Z</time>
      </trkpt>
      <trkpt lat="44.23467" lon="6.64732">
        <ele>1737</ele>
        <time>2021-08-18T08:30:29Z</time>
      </trkpt>
      <trkpt lat="44.2346" lon="6.6473">
        <ele>1737</ele>
        <time>2021-08-18T08:30:38Z</time>
      </trkpt>
      <trkpt lat="44.2345" lon="6.64723">
        <ele>1737</ele>
        <time>2021-08-18T08:30:49Z</time>
      </trkpt>
      <trkpt lat="44.23446" lon="6.64717">
        <ele>1738</ele>
        <time>2021-08-18T08:30:59Z</time>
      </trkpt>
      <trkpt lat="44.23441" lon="6.6471">
        <ele>1741</ele>
        <time>2021-08-18T08:31:09Z</time>
      </trkpt>
      <trkpt lat="44.23436" lon="6.64705">
        <ele>1742</ele>
        <time>2021-08-18T08:31:19Z</time>
      </trkpt>
      <trkpt lat="44.23429" lon="6.64698">
        <ele>1742</ele>
        <time>2021-08-18T08:31:28Z</time>
      </trkpt>
      <trkpt lat="44.23421" lon="6.64692">
        <ele>1740</ele>
        <time>2021-08-18T08:31:37Z</time>
      </trkpt>
      <trkpt lat="44.23416" lon="6.64683">
        <ele>1738</ele>
        <time>2021-08-18T08:31:48Z</time>
      </trkpt>
      <trkpt lat="44.23412" lon="6.64675">
        <ele>1738</ele>
        <time>2021-08-18T08:31:57Z</time>
      </trkpt>
      <trkpt lat="44.23404" lon="6.64667">
        <ele>1739</ele>
        <time>2021-08-18T08:32:07Z</time>
      </trkpt>
      <trkpt lat="44.234" lon="6.64657">
        <ele>1739</ele>
        <time>2021-08-18T08:32:17Z</time>
      </trkpt>
      <trkpt lat="44.23394" lon="6.64652">
        <ele>1739</ele>
        <time>2021-08-18T08:32:27Z</time>
      </trkpt>
      <trkpt lat="44.23397" lon="6.64642">
        <ele>1742</ele>
        <time>2021-08-18T08:32:36Z</time>
      </trkpt>
      <trkpt lat="44.23392" lon="6.64637">
        <ele>1747</ele>
        <time>2021-08-18T08:32:50Z</time>
      </trkpt>
      <trkpt lat="44.23385" lon="6.64628">
        <ele>1748</ele>
        <time>2021-08-18T08:33:01Z</time>
      </trkpt>
      <trkpt lat="44.2338" lon="6.64619">
        <ele>1748</ele>
        <time>2021-08-18T08:33:12Z</time>
      </trkpt>
      <trkpt lat="44.23376" lon="6.64613">
        <ele>1748</ele>
        <time>2021-08-18T08:33:22Z</time>
      </trkpt>
      <trkpt lat="44.2337" lon="6.64607">
        <ele>1745</ele>
        <time>2021-08-18T08:33:31Z</time>
      </trkpt>
      <trkpt lat="44.23363" lon="6.64597">
        <ele>1741</ele>
        <time>2021-08-18T08:33:42Z</time>
      </trkpt>
      <trkpt lat="44.23358" lon="6.64592">
        <ele>1741</ele>
        <time>2021-08-18T08:33:53Z</time>
      </trkpt>
      <trkpt lat="44.23352" lon="6.64588">
        <ele>1745</ele>
        <time>2021-08-18T08:34:03Z</time>
      </trkpt>
      <trkpt lat="44.23349" lon="6.64585">
        <ele>1747</ele>
        <time>2021-08-18T08:34:12Z</time>
      </trkpt>
      <trkpt lat="44.2334" lon="6.64581">
        <ele>1747</ele>
        <time>2021-08-18T08:34:21Z</time>
      </trkpt>
      <trkpt lat="44.23334" lon="6.64574">
        <ele>1747</ele>
        <time>2021-08-18T08:34:32Z</time>
      </trkpt>
      <trkpt lat="44.2333" lon="6.64566">
        <ele>1748</ele>
        <time>2021-08-18T08:34:41Z</time>
      </trkpt>
      <trkpt lat="44.2332" lon="6.64558">
        <ele>1749</ele>
        <time>2021-08-18T08:34:51Z</time>
      </trkpt>
      <trkpt lat="44.23313" lon="6.64551">
        <ele>1749</ele>
        <time>2021-08-18T08:35:01Z</time>
      </trkpt>
      <trkpt lat="44.23307" lon="6.64546">
        <ele>1749</ele>
        <time>2021-08-18T08:35:10Z</time>
      </trkpt>
      <trkpt lat="44.23295" lon="6.64544">
        <ele>1749</ele>
        <time>2021-08-18T08:35:22Z</time>
      </trkpt>
      <trkpt lat="44.23288" lon="6.6454">
        <ele>1749</ele>
        <time>2021-08-18T08:35:33Z</time>
      </trkpt>
      <trkpt lat="44.23286" lon="6.64533">
        <ele>1749</ele>
        <time>2021-08-18T08:35:42Z</time>
      </trkpt>
      <trkpt lat="44.23281" lon="6.64528">
        <ele>1751</ele>
        <time>2021-08-18T08:35:53Z</time>
      </trkpt>
      <trkpt lat="44.23274" lon="6.64525">
        <ele>1751</ele>
        <time>2021-08-18T08:36:03Z</time>
      </trkpt>
      <trkpt lat="44.23267" lon="6.64521">
        <ele>1748</ele>
        <time>2021-08-18T08:36:12Z</time>
      </trkpt>
      <trkpt lat="44.23263" lon="6.64512">
        <ele>1747</ele>
        <time>2021-08-18T08:36:22Z</time>
      </trkpt>
      <trkpt lat="44.23259" lon="6.64505">
        <ele>1747</ele>
        <time>2021-08-18T08:36:32Z</time>
      </trkpt>
      <trkpt lat="44.23254" lon="6.64497">
        <ele>1747</ele>
        <time>2021-08-18T08:36:41Z</time>
      </trkpt>
      <trkpt lat="44.23248" lon="6.64488">
        <ele>1747</ele>
        <time>2021-08-18T08:36:52Z</time>
      </trkpt>
      <trkpt lat="44.23245" lon="6.6448">
        <ele>1746</ele>
        <time>2021-08-18T08:37:01Z</time>
      </trkpt>
      <trkpt lat="44.23242" lon="6.6447">
        <ele>1746</ele>
        <time>2021-08-18T08:37:11Z</time>
      </trkpt>
      <trkpt lat="44.23238" lon="6.64461">
        <ele>1746</ele>
        <time>2021-08-18T08:37:20Z</time>
      </trkpt>
      <trkpt lat="44.23234" lon="6.64453">
        <ele>1746</ele>
        <time>2021-08-18T08:37:29Z</time>
      </trkpt>
      <trkpt lat="44.2323" lon="6.64442">
        <ele>1747</ele>
        <time>2021-08-18T08:37:40Z</time>
      </trkpt>
      <trkpt lat="44.23224" lon="6.64432">
        <ele>1748</ele>
        <time>2021-08-18T08:37:50Z</time>
      </trkpt>
      <trkpt lat="44.23217" lon="6.64422">
        <ele>1750</ele>
        <time>2021-08-18T08:37:59Z</time>
      </trkpt>
      <trkpt lat="44.23215" lon="6.64415">
        <ele>1750</ele>
        <time>2021-08-18T08:38:08Z</time>
      </trkpt>
      <trkpt lat="44.23218" lon="6.64409">
        <ele>1750</ele>
        <time>2021-08-18T08:38:17Z</time>
      </trkpt>
      <trkpt lat="44.23223" lon="6.64401">
        <ele>1750</ele>
        <time>2021-08-18T08:38:27Z</time>
      </trkpt>
      <trkpt lat="44.23217" lon="6.64395">
        <ele>1748</ele>
        <time>2021-08-18T08:38:37Z</time>
      </trkpt>
      <trkpt lat="44.23211" lon="6.64389">
        <ele>1748</ele>
        <time>2021-08-18T08:38:47Z</time>
      </trkpt>
      <trkpt lat="44.23206" lon="6.64384">
        <ele>1748</ele>
        <time>2021-08-18T08:38:57Z</time>
      </trkpt>
      <trkpt lat="44.23202" lon="6.64374">
        <ele>1748</ele>
        <time>2021-08-18T08:39:08Z</time>
      </trkpt>
      <trkpt lat="44.23199" lon="6.64366">
        <ele>1748</ele>
        <time>2021-08-18T08:39:17Z</time>
      </trkpt>
      <trkpt lat="44.23197" lon="6.64357">
        <ele>1745</ele>
        <time>2021-08-18T08:39:27Z</time>
      </trkpt>
      <trkpt lat="44.23195" lon="6.64349">
        <ele>1745</ele>
        <time>2021-08-18T08:39:36Z</time>
      </trkpt>
      <trkpt lat="44.23191" lon="6.64343">
        <ele>1742</ele>
        <time>2021-08-18T08:39:45Z</time>
      </trkpt>
      <trkpt lat="44.23191" lon="6.64331">
        <ele>1742</ele>
        <time>2021-08-18T08:39:54Z</time>
      </trkpt>
      <trkpt lat="44.23191" lon="6.64317">
        <ele>1742</ele>
        <time>2021-08-18T08:40:04Z</time>
      </trkpt>
      <trkpt lat="44.23189" lon="6.64303">
        <ele>1741</ele>
        <time>2021-08-18T08:40:14Z</time>
      </trkpt>
      <trkpt lat="44.23185" lon="6.64297">
        <ele>1739</ele>
        <time>2021-08-18T08:40:23Z</time>
      </trkpt>
      <trkpt lat="44.23185" lon="6.64289">
        <ele>1737</ele>
        <time>2021-08-18T08:40:33Z</time>
      </trkpt>
      <trkpt lat="44.23183" lon="6.64283">
        <ele>1737</ele>
        <time>2021-08-18T08:40:42Z</time>
      </trkpt>
      <trkpt lat="44.2318" lon="6.64272">
        <ele>1737</ele>
        <time>2021-08-18T08:40:52Z</time>
      </trkpt>
      <trkpt lat="44.23175" lon="6.64263">
        <ele>1735</ele>
        <time>2021-08-18T08:41:02Z</time>
      </trkpt>
      <trkpt lat="44.23169" lon="6.64257">
        <ele>1732</ele>
        <time>2021-08-18T08:41:12Z</time>
      </trkpt>
      <trkpt lat="44.23161" lon="6.64251">
        <ele>1730</ele>
        <time>2021-08-18T08:41:23Z</time>
      </trkpt>
      <trkpt lat="44.23156" lon="6.64242">
        <ele>1729</ele>
        <time>2021-08-18T08:41:32Z</time>
      </trkpt>
      <trkpt lat="44.23148" lon="6.64239">
        <ele>1728</ele>
        <time>2021-08-18T08:41:42Z</time>
      </trkpt>
      <trkpt lat="44.23138" lon="6.6424">
        <ele>1727</ele>
        <time>2021-08-18T08:41:57Z</time>
      </trkpt>
      <trkpt lat="44.2313" lon="6.64243">
        <ele>1726</ele>
        <time>2021-08-18T08:42:06Z</time>
      </trkpt>
      <trkpt lat="44.23127" lon="6.64233">
        <ele>1728</ele>
        <time>2021-08-18T08:42:19Z</time>
      </trkpt>
      <trkpt lat="44.23122" lon="6.64228">
        <ele>1733</ele>
        <time>2021-08-18T08:42:28Z</time>
      </trkpt>
      <trkpt lat="44.23122" lon="6.64228">
        <ele>1741</ele>
        <time>2021-08-18T08:42:42Z</time>
      </trkpt>
      <trkpt lat="44.23124" lon="6.64224">
        <ele>1741</ele>
        <time>2021-08-18T08:42:51Z</time>
      </trkpt>
      <trkpt lat="44.23121" lon="6.6422">
        <ele>1735</ele>
        <time>2021-08-18T08:43:02Z</time>
      </trkpt>
      <trkpt lat="44.23118" lon="6.64215">
        <ele>1733</ele>
        <time>2021-08-18T08:43:11Z</time>
      </trkpt>
      <trkpt lat="44.23116" lon="6.64212">
        <ele>1729</ele>
        <time>2021-08-18T08:43:21Z</time>
      </trkpt>
      <trkpt lat="44.23116" lon="6.64211">
        <ele>1726</ele>
        <time>2021-08-18T08:43:31Z</time>
      </trkpt>
      <trkpt lat="44.23112" lon="6.64208">
        <ele>1726</ele>
        <time>2021-08-18T08:43:42Z</time>
      </trkpt>
      <trkpt lat="44.23101" lon="6.64203">
        <ele>1726</ele>
        <time>2021-08-18T08:43:52Z</time>
      </trkpt>
      <trkpt lat="44.23095" lon="6.64203">
        <ele>1726</ele>
        <time>2021-08-18T08:44:01Z</time>
      </trkpt>
      <trkpt lat="44.23088" lon="6.64201">
        <ele>1730</ele>
        <time>2021-08-18T08:44:11Z</time>
      </trkpt>
      <trkpt lat="44.23082" lon="6.64201">
        <ele>1734</ele>
        <time>2021-08-18T08:44:21Z</time>
      </trkpt>
      <trkpt lat="44.23077" lon="6.64201">
        <ele>1736</ele>
        <time>2021-08-18T08:44:31Z</time>
      </trkpt>
      <trkpt lat="44.23072" lon="6.64203">
        <ele>1739</ele>
        <time>2021-08-18T08:44:41Z</time>
      </trkpt>
      <trkpt lat="44.23067" lon="6.64206">
        <ele>1742</ele>
        <time>2021-08-18T08:44:51Z</time>
      </trkpt>
      <trkpt lat="44.23063" lon="6.64211">
        <ele>1744</ele>
        <time>2021-08-18T08:45:00Z</time>
      </trkpt>
      <trkpt lat="44.2306" lon="6.64216">
        <ele>1744</ele>
        <time>2021-08-18T08:45:10Z</time>
      </trkpt>
      <trkpt lat="44.23057" lon="6.64222">
        <ele>1744</ele>
        <time>2021-08-18T08:45:19Z</time>
      </trkpt>
      <trkpt lat="44.23051" lon="6.64227">
        <ele>1744</ele>
        <time>2021-08-18T08:45:28Z</time>
      </trkpt>
      <trkpt lat="44.23048" lon="6.64228">
        <ele>1746</ele>
        <time>2021-08-18T08:45:40Z</time>
      </trkpt>
      <trkpt lat="44.23046" lon="6.64233">
        <ele>1752</ele>
        <time>2021-08-18T08:45:51Z</time>
      </trkpt>
      <trkpt lat="44.23042" lon="6.64237">
        <ele>1752</ele>
        <time>2021-08-18T08:46:03Z</time>
      </trkpt>
      <trkpt lat="44.2304" lon="6.64242">
        <ele>1752</ele>
        <time>2021-08-18T08:46:13Z</time>
      </trkpt>
      <trkpt lat="44.23034" lon="6.64242">
        <ele>1753</ele>
        <time>2021-08-18T08:46:23Z</time>
      </trkpt>
      <trkpt lat="44.23029" lon="6.64247">
        <ele>1753</ele>
        <time>2021-08-18T08:46:35Z</time>
      </trkpt>
      <trkpt lat="44.23032" lon="6.64253">
        <ele>1754</ele>
        <time>2021-08-18T08:46:45Z</time>
      </trkpt>
      <trkpt lat="44.23037" lon="6.64258">
        <ele>1754</ele>
        <time>2021-08-18T08:46:55Z</time>
      </trkpt>
      <trkpt lat="44.23041" lon="6.64254">
        <ele>1754</ele>
        <time>2021-08-18T08:47:05Z</time>
      </trkpt>
      <trkpt lat="44.23048" lon="6.64254">
        <ele>1755</ele>
        <time>2021-08-18T08:47:16Z</time>
      </trkpt>
      <trkpt lat="44.23053" lon="6.64252">
        <ele>1759</ele>
        <time>2021-08-18T08:47:26Z</time>
      </trkpt>
      <trkpt lat="44.23058" lon="6.64256">
        <ele>1759</ele>
        <time>2021-08-18T08:47:36Z</time>
      </trkpt>
      <trkpt lat="44.2306" lon="6.6426">
        <ele>1761</ele>
        <time>2021-08-18T08:47:45Z</time>
      </trkpt>
      <trkpt lat="44.23064" lon="6.64268">
        <ele>1762</ele>
        <time>2021-08-18T08:47:54Z</time>
      </trkpt>
      <trkpt lat="44.23067" lon="6.64277">
        <ele>1763</ele>
        <time>2021-08-18T08:48:03Z</time>
      </trkpt>
      <trkpt lat="44.23071" lon="6.64286">
        <ele>1763</ele>
        <time>2021-08-18T08:48:13Z</time>
      </trkpt>
      <trkpt lat="44.23076" lon="6.64294">
        <ele>1763</ele>
        <time>2021-08-18T08:48:23Z</time>
      </trkpt>
      <trkpt lat="44.23079" lon="6.64301">
        <ele>1763</ele>
        <time>2021-08-18T08:48:32Z</time>
      </trkpt>
      <trkpt lat="44.23082" lon="6.64309">
        <ele>1763</ele>
        <time>2021-08-18T08:48:41Z</time>
      </trkpt>
      <trkpt lat="44.23079" lon="6.64316">
        <ele>1764</ele>
        <time>2021-08-18T08:48:51Z</time>
      </trkpt>
      <trkpt lat="44.23071" lon="6.64319">
        <ele>1765</ele>
        <time>2021-08-18T08:49:01Z</time>
      </trkpt>
      <trkpt lat="44.23064" lon="6.64321">
        <ele>1767</ele>
        <time>2021-08-18T08:49:10Z</time>
      </trkpt>
      <trkpt lat="44.23054" lon="6.6432">
        <ele>1770</ele>
        <time>2021-08-18T08:49:20Z</time>
      </trkpt>
      <trkpt lat="44.23046" lon="6.64321">
        <ele>1773</ele>
        <time>2021-08-18T08:49:30Z</time>
      </trkpt>
      <trkpt lat="44.23038" lon="6.64317">
        <ele>1781</ele>
        <time>2021-08-18T08:49:41Z</time>
      </trkpt>
      <trkpt lat="44.23032" lon="6.64319">
        <ele>1784</ele>
        <time>2021-08-18T08:49:52Z</time>
      </trkpt>
      <trkpt lat="44.2303" lon="6.64321">
        <ele>1784</ele>
        <time>2021-08-18T08:50:01Z</time>
      </trkpt>
      <trkpt lat="44.23029" lon="6.64324">
        <ele>1782</ele>
        <time>2021-08-18T08:50:10Z</time>
      </trkpt>
      <trkpt lat="44.23027" lon="6.64326">
        <ele>1783</ele>
        <time>2021-08-18T08:50:24Z</time>
      </trkpt>
      <trkpt lat="44.23022" lon="6.64331">
        <ele>1783</ele>
        <time>2021-08-18T08:50:34Z</time>
      </trkpt>
      <trkpt lat="44.23026" lon="6.64334">
        <ele>1784</ele>
        <time>2021-08-18T08:50:44Z</time>
      </trkpt>
      <trkpt lat="44.23029" lon="6.64337">
        <ele>1785</ele>
        <time>2021-08-18T08:50:53Z</time>
      </trkpt>
      <trkpt lat="44.23033" lon="6.64347">
        <ele>1785</ele>
        <time>2021-08-18T08:51:04Z</time>
      </trkpt>
      <trkpt lat="44.23036" lon="6.64358">
        <ele>1786</ele>
        <time>2021-08-18T08:51:14Z</time>
      </trkpt>
      <trkpt lat="44.23039" lon="6.64368">
        <ele>1790</ele>
        <time>2021-08-18T08:51:24Z</time>
      </trkpt>
      <trkpt lat="44.23043" lon="6.64375">
        <ele>1791</ele>
        <time>2021-08-18T08:51:36Z</time>
      </trkpt>
      <trkpt lat="44.23045" lon="6.6438">
        <ele>1791</ele>
        <time>2021-08-18T08:51:47Z</time>
      </trkpt>
      <trkpt lat="44.23048" lon="6.64385">
        <ele>1792</ele>
        <time>2021-08-18T08:51:57Z</time>
      </trkpt>
      <trkpt lat="44.23051" lon="6.64392">
        <ele>1794</ele>
        <time>2021-08-18T08:52:06Z</time>
      </trkpt>
      <trkpt lat="44.23055" lon="6.644">
        <ele>1794</ele>
        <time>2021-08-18T08:52:16Z</time>
      </trkpt>
      <trkpt lat="44.23059" lon="6.64407">
        <ele>1797</ele>
        <time>2021-08-18T08:52:26Z</time>
      </trkpt>
      <trkpt lat="44.2306" lon="6.64412">
        <ele>1797</ele>
        <time>2021-08-18T08:52:36Z</time>
      </trkpt>
      <trkpt lat="44.2306" lon="6.64419">
        <ele>1800</ele>
        <time>2021-08-18T08:52:45Z</time>
      </trkpt>
      <trkpt lat="44.23063" lon="6.64426">
        <ele>1802</ele>
        <time>2021-08-18T08:52:54Z</time>
      </trkpt>
      <trkpt lat="44.23064" lon="6.64431">
        <ele>1803</ele>
        <time>2021-08-18T08:53:03Z</time>
      </trkpt>
      <trkpt lat="44.23065" lon="6.64438">
        <ele>1804</ele>
        <time>2021-08-18T08:53:12Z</time>
      </trkpt>
      <trkpt lat="44.23067" lon="6.64446">
        <ele>1808</ele>
        <time>2021-08-18T08:53:23Z</time>
      </trkpt>
      <trkpt lat="44.23069" lon="6.64451">
        <ele>1809</ele>
        <time>2021-08-18T08:53:34Z</time>
      </trkpt>
      <trkpt lat="44.23071" lon="6.64458">
        <ele>1809</ele>
        <time>2021-08-18T08:53:45Z</time>
      </trkpt>
      <trkpt lat="44.23074" lon="6.64467">
        <ele>1810</ele>
        <time>2021-08-18T08:53:55Z</time>
      </trkpt>
      <trkpt lat="44.23078" lon="6.64475">
        <ele>1810</ele>
        <time>2021-08-18T08:54:05Z</time>
      </trkpt>
      <trkpt lat="44.23076" lon="6.64482">
        <ele>1810</ele>
        <time>2021-08-18T08:54:16Z</time>
      </trkpt>
      <trkpt lat="44.23076" lon="6.64488">
        <ele>1810</ele>
        <time>2021-08-18T08:54:26Z</time>
      </trkpt>
      <trkpt lat="44.23074" lon="6.64493">
        <ele>1810</ele>
        <time>2021-08-18T08:54:37Z</time>
      </trkpt>
      <trkpt lat="44.23069" lon="6.6449">
        <ele>1814</ele>
        <time>2021-08-18T08:54:46Z</time>
      </trkpt>
      <trkpt lat="44.23066" lon="6.64493">
        <ele>1818</ele>
        <time>2021-08-18T08:54:56Z</time>
      </trkpt>
      <trkpt lat="44.23067" lon="6.64495">
        <ele>1817</ele>
        <time>2021-08-18T08:55:07Z</time>
      </trkpt>
      <trkpt lat="44.23065" lon="6.64499">
        <ele>1817</ele>
        <time>2021-08-18T08:55:17Z</time>
      </trkpt>
      <trkpt lat="44.23067" lon="6.64501">
        <ele>1816</ele>
        <time>2021-08-18T08:55:26Z</time>
      </trkpt>
      <trkpt lat="44.23066" lon="6.64503">
        <ele>1816</ele>
        <time>2021-08-18T08:55:38Z</time>
      </trkpt>
      <trkpt lat="44.23064" lon="6.64503">
        <ele>1816</ele>
        <time>2021-08-18T08:55:47Z</time>
      </trkpt>
      <trkpt lat="44.2306" lon="6.6451">
        <ele>1817</ele>
        <time>2021-08-18T08:55:56Z</time>
      </trkpt>
      <trkpt lat="44.23062" lon="6.64517">
        <ele>1818</ele>
        <time>2021-08-18T08:56:06Z</time>
      </trkpt>
      <trkpt lat="44.23066" lon="6.64518">
        <ele>1820</ele>
        <time>2021-08-18T08:56:16Z</time>
      </trkpt>
      <trkpt lat="44.23071" lon="6.64519">
        <ele>1820</ele>
        <time>2021-08-18T08:56:25Z</time>
      </trkpt>
      <trkpt lat="44.23074" lon="6.64526">
        <ele>1820</ele>
        <time>2021-08-18T08:56:36Z</time>
      </trkpt>
      <trkpt lat="44.23076" lon="6.64539">
        <ele>1819</ele>
        <time>2021-08-18T08:56:45Z</time>
      </trkpt>
      <trkpt lat="44.23077" lon="6.64549">
        <ele>1819</ele>
        <time>2021-08-18T08:56:54Z</time>
      </trkpt>
      <trkpt lat="44.23078" lon="6.64559">
        <ele>1819</ele>
        <time>2021-08-18T08:57:04Z</time>
      </trkpt>
      <trkpt lat="44.23079" lon="6.64567">
        <ele>1819</ele>
        <time>2021-08-18T08:57:14Z</time>
      </trkpt>
      <trkpt lat="44.2308" lon="6.64572">
        <ele>1821</ele>
        <time>2021-08-18T08:57:23Z</time>
      </trkpt>
      <trkpt lat="44.2308" lon="6.64578">
        <ele>1824</ele>
        <time>2021-08-18T08:57:33Z</time>
      </trkpt>
      <trkpt lat="44.2308" lon="6.64587">
        <ele>1825</ele>
        <time>2021-08-18T08:57:46Z</time>
      </trkpt>
      <trkpt lat="44.23076" lon="6.64595">
        <ele>1825</ele>
        <time>2021-08-18T08:57:57Z</time>
      </trkpt>
      <trkpt lat="44.23071" lon="6.64599">
        <ele>1826</ele>
        <time>2021-08-18T08:58:07Z</time>
      </trkpt>
      <trkpt lat="44.23065" lon="6.64606">
        <ele>1827</ele>
        <time>2021-08-18T08:58:17Z</time>
      </trkpt>
      <trkpt lat="44.23061" lon="6.64611">
        <ele>1828</ele>
        <time>2021-08-18T08:58:28Z</time>
      </trkpt>
      <trkpt lat="44.23055" lon="6.64614">
        <ele>1828</ele>
        <time>2021-08-18T08:58:38Z</time>
      </trkpt>
      <trkpt lat="44.23053" lon="6.64614">
        <ele>1834</ele>
        <time>2021-08-18T08:58:49Z</time>
      </trkpt>
      <trkpt lat="44.2305" lon="6.64621">
        <ele>1835</ele>
        <time>2021-08-18T08:59:00Z</time>
      </trkpt>
      <trkpt lat="44.23049" lon="6.64622">
        <ele>1839</ele>
        <time>2021-08-18T08:59:10Z</time>
      </trkpt>
      <trkpt lat="44.23044" lon="6.6462">
        <ele>1839</ele>
        <time>2021-08-18T08:59:24Z</time>
      </trkpt>
      <trkpt lat="44.23046" lon="6.64622">
        <ele>1840</ele>
        <time>2021-08-18T08:59:33Z</time>
      </trkpt>
      <trkpt lat="44.23045" lon="6.64624">
        <ele>1836</ele>
        <time>2021-08-18T08:59:45Z</time>
      </trkpt>
      <trkpt lat="44.23052" lon="6.64634">
        <ele>1832</ele>
        <time>2021-08-18T08:59:59Z</time>
      </trkpt>
      <trkpt lat="44.23045" lon="6.64627">
        <ele>1841</ele>
        <time>2021-08-18T09:00:08Z</time>
      </trkpt>
      <trkpt lat="44.23047" lon="6.64618">
        <ele>1841</ele>
        <time>2021-08-18T09:00:17Z</time>
      </trkpt>
      <trkpt lat="44.23044" lon="6.64616">
        <ele>1833</ele>
        <time>2021-08-18T09:00:27Z</time>
      </trkpt>
      <trkpt lat="44.23047" lon="6.64618">
        <ele>1824</ele>
        <time>2021-08-18T09:00:37Z</time>
      </trkpt>
      <trkpt lat="44.23048" lon="6.64621">
        <ele>1824</ele>
        <time>2021-08-18T09:00:46Z</time>
      </trkpt>
      <trkpt lat="44.23042" lon="6.64629">
        <ele>1827</ele>
        <time>2021-08-18T09:00:56Z</time>
      </trkpt>
      <trkpt lat="44.23039" lon="6.64633">
        <ele>1829</ele>
        <time>2021-08-18T09:01:05Z</time>
      </trkpt>
      <trkpt lat="44.23035" lon="6.64634">
        <ele>1834</ele>
        <time>2021-08-18T09:01:15Z</time>
      </trkpt>
      <trkpt lat="44.23032" lon="6.64642">
        <ele>1840</ele>
        <time>2021-08-18T09:01:24Z</time>
      </trkpt>
      <trkpt lat="44.23033" lon="6.64647">
        <ele>1839</ele>
        <time>2021-08-18T09:01:33Z</time>
      </trkpt>
      <trkpt lat="44.23027" lon="6.64655">
        <ele>1842</ele>
        <time>2021-08-18T09:01:42Z</time>
      </trkpt>
      <trkpt lat="44.23022" lon="6.64658">
        <ele>1843</ele>
        <time>2021-08-18T09:01:52Z</time>
      </trkpt>
      <trkpt lat="44.23021" lon="6.64663">
        <ele>1847</ele>
        <time>2021-08-18T09:02:01Z</time>
      </trkpt>
      <trkpt lat="44.23021" lon="6.64669">
        <ele>1847</ele>
        <time>2021-08-18T09:02:12Z</time>
      </trkpt>
      <trkpt lat="44.2302" lon="6.64678">
        <ele>1847</ele>
        <time>2021-08-18T09:02:22Z</time>
      </trkpt>
      <trkpt lat="44.23024" lon="6.64687">
        <ele>1842</ele>
        <time>2021-08-18T09:02:32Z</time>
      </trkpt>
      <trkpt lat="44.23024" lon="6.64696">
        <ele>1841</ele>
        <time>2021-08-18T09:02:41Z</time>
      </trkpt>
      <trkpt lat="44.23029" lon="6.64698">
        <ele>1841</ele>
        <time>2021-08-18T09:02:50Z</time>
      </trkpt>
      <trkpt lat="44.23024" lon="6.64708">
        <ele>1844</ele>
        <time>2021-08-18T09:03:00Z</time>
      </trkpt>
      <trkpt lat="44.23027" lon="6.64715">
        <ele>1847</ele>
        <time>2021-08-18T09:03:10Z</time>
      </trkpt>
      <trkpt lat="44.23022" lon="6.64726">
        <ele>1848</ele>
        <time>2021-08-18T09:03:20Z</time>
      </trkpt>
      <trkpt lat="44.2302" lon="6.64734">
        <ele>1848</ele>
        <time>2021-08-18T09:03:30Z</time>
      </trkpt>
      <trkpt lat="44.23017" lon="6.64744">
        <ele>1848</ele>
        <time>2021-08-18T09:03:39Z</time>
      </trkpt>
      <trkpt lat="44.23016" lon="6.64753">
        <ele>1848</ele>
        <time>2021-08-18T09:03:48Z</time>
      </trkpt>
      <trkpt lat="44.23015" lon="6.64762">
        <ele>1853</ele>
        <time>2021-08-18T09:03:58Z</time>
      </trkpt>
      <trkpt lat="44.23011" lon="6.64771">
        <ele>1859</ele>
        <time>2021-08-18T09:04:08Z</time>
      </trkpt>
      <trkpt lat="44.23005" lon="6.64781">
        <ele>1860</ele>
        <time>2021-08-18T09:04:19Z</time>
      </trkpt>
      <trkpt lat="44.23003" lon="6.64785">
        <ele>1860</ele>
        <time>2021-08-18T09:04:28Z</time>
      </trkpt>
      <trkpt lat="44.22998" lon="6.64791">
        <ele>1861</ele>
        <time>2021-08-18T09:04:40Z</time>
      </trkpt>
      <trkpt lat="44.22995" lon="6.64795">
        <ele>1861</ele>
        <time>2021-08-18T09:04:50Z</time>
      </trkpt>
      <trkpt lat="44.22987" lon="6.64804">
        <ele>1862</ele>
        <time>2021-08-18T09:05:01Z</time>
      </trkpt>
      <trkpt lat="44.2299" lon="6.64811">
        <ele>1862</ele>
        <time>2021-08-18T09:05:12Z</time>
      </trkpt>
      <trkpt lat="44.22985" lon="6.64816">
        <ele>1862</ele>
        <time>2021-08-18T09:05:22Z</time>
      </trkpt>
      <trkpt lat="44.22984" lon="6.64824">
        <ele>1862</ele>
        <time>2021-08-18T09:05:32Z</time>
      </trkpt>
      <trkpt lat="44.22982" lon="6.64835">
        <ele>1862</ele>
        <time>2021-08-18T09:05:41Z</time>
      </trkpt>
      <trkpt lat="44.22979" lon="6.64844">
        <ele>1862</ele>
        <time>2021-08-18T09:05:51Z</time>
      </trkpt>
      <trkpt lat="44.22977" lon="6.64853">
        <ele>1862</ele>
        <time>2021-08-18T09:06:01Z</time>
      </trkpt>
      <trkpt lat="44.22973" lon="6.64862">
        <ele>1862</ele>
        <time>2021-08-18T09:06:12Z</time>
      </trkpt>
      <trkpt lat="44.2297" lon="6.64868">
        <ele>1863</ele>
        <time>2021-08-18T09:06:21Z</time>
      </trkpt>
      <trkpt lat="44.22966" lon="6.64877">
        <ele>1865</ele>
        <time>2021-08-18T09:06:31Z</time>
      </trkpt>
      <trkpt lat="44.22962" lon="6.64886">
        <ele>1865</ele>
        <time>2021-08-18T09:06:41Z</time>
      </trkpt>
      <trkpt lat="44.22959" lon="6.64894">
        <ele>1865</ele>
        <time>2021-08-18T09:06:50Z</time>
      </trkpt>
      <trkpt lat="44.22955" lon="6.64899">
        <ele>1865</ele>
        <time>2021-08-18T09:06:59Z</time>
      </trkpt>
      <trkpt lat="44.22952" lon="6.64905">
        <ele>1866</ele>
        <time>2021-08-18T09:07:09Z</time>
      </trkpt>
      <trkpt lat="44.22947" lon="6.64912">
        <ele>1867</ele>
        <time>2021-08-18T09:07:20Z</time>
      </trkpt>
      <trkpt lat="44.22944" lon="6.64912">
        <ele>1868</ele>
        <time>2021-08-18T09:07:30Z</time>
      </trkpt>
      <trkpt lat="44.22943" lon="6.64913">
        <ele>1869</ele>
        <time>2021-08-18T09:07:40Z</time>
      </trkpt>
      <trkpt lat="44.22942" lon="6.64913">
        <ele>1869</ele>
        <time>2021-08-18T09:07:50Z</time>
      </trkpt>
      <trkpt lat="44.22943" lon="6.64913">
        <ele>1869</ele>
        <time>2021-08-18T09:08:15Z</time>
      </trkpt>
      <trkpt lat="44.22945" lon="6.6492">
        <ele>1872</ele>
        <time>2021-08-18T09:08:24Z</time>
      </trkpt>
      <trkpt lat="44.22941" lon="6.64929">
        <ele>1873</ele>
        <time>2021-08-18T09:08:34Z</time>
      </trkpt>
      <trkpt lat="44.22938" lon="6.64937">
        <ele>1874</ele>
        <time>2021-08-18T09:08:44Z</time>
      </trkpt>
      <trkpt lat="44.22934" lon="6.64945">
        <ele>1875</ele>
        <time>2021-08-18T09:08:55Z</time>
      </trkpt>
      <trkpt lat="44.22932" lon="6.64954">
        <ele>1876</ele>
        <time>2021-08-18T09:09:05Z</time>
      </trkpt>
      <trkpt lat="44.22929" lon="6.64963">
        <ele>1878</ele>
        <time>2021-08-18T09:09:15Z</time>
      </trkpt>
      <trkpt lat="44.22927" lon="6.64969">
        <ele>1880</ele>
        <time>2021-08-18T09:09:35Z</time>
      </trkpt>
      <trkpt lat="44.22923" lon="6.64977">
        <ele>1880</ele>
        <time>2021-08-18T09:09:47Z</time>
      </trkpt>
      <trkpt lat="44.22919" lon="6.64983">
        <ele>1881</ele>
        <time>2021-08-18T09:09:57Z</time>
      </trkpt>
      <trkpt lat="44.22915" lon="6.64989">
        <ele>1882</ele>
        <time>2021-08-18T09:10:07Z</time>
      </trkpt>
      <trkpt lat="44.22907" lon="6.65001">
        <ele>1890</ele>
        <time>2021-08-18T09:10:17Z</time>
      </trkpt>
      <trkpt lat="44.22906" lon="6.65005">
        <ele>1893</ele>
        <time>2021-08-18T09:10:30Z</time>
      </trkpt>
      <trkpt lat="44.22899" lon="6.65012">
        <ele>1896</ele>
        <time>2021-08-18T09:10:39Z</time>
      </trkpt>
      <trkpt lat="44.22894" lon="6.65014">
        <ele>1896</ele>
        <time>2021-08-18T09:10:48Z</time>
      </trkpt>
      <trkpt lat="44.22887" lon="6.65014">
        <ele>1896</ele>
        <time>2021-08-18T09:10:57Z</time>
      </trkpt>
      <trkpt lat="44.22884" lon="6.65021">
        <ele>1896</ele>
        <time>2021-08-18T09:11:07Z</time>
      </trkpt>
      <trkpt lat="44.22884" lon="6.65027">
        <ele>1896</ele>
        <time>2021-08-18T09:11:18Z</time>
      </trkpt>
      <trkpt lat="44.22883" lon="6.65033">
        <ele>1896</ele>
        <time>2021-08-18T09:11:27Z</time>
      </trkpt>
      <trkpt lat="44.22879" lon="6.65042">
        <ele>1896</ele>
        <time>2021-08-18T09:11:37Z</time>
      </trkpt>
      <trkpt lat="44.22875" lon="6.65049">
        <ele>1896</ele>
        <time>2021-08-18T09:11:46Z</time>
      </trkpt>
      <trkpt lat="44.2287" lon="6.65053">
        <ele>1898</ele>
        <time>2021-08-18T09:11:56Z</time>
      </trkpt>
      <trkpt lat="44.22866" lon="6.65054">
        <ele>1901</ele>
        <time>2021-08-18T09:12:10Z</time>
      </trkpt>
      <trkpt lat="44.22868" lon="6.65063">
        <ele>1905</ele>
        <time>2021-08-18T09:12:21Z</time>
      </trkpt>
      <trkpt lat="44.22863" lon="6.65068">
        <ele>1904</ele>
        <time>2021-08-18T09:12:31Z</time>
      </trkpt>
      <trkpt lat="44.2286" lon="6.65075">
        <ele>1902</ele>
        <time>2021-08-18T09:12:42Z</time>
      </trkpt>
      <trkpt lat="44.22855" lon="6.65083">
        <ele>1901</ele>
        <time>2021-08-18T09:12:54Z</time>
      </trkpt>
      <trkpt lat="44.22852" lon="6.65089">
        <ele>1902</ele>
        <time>2021-08-18T09:13:05Z</time>
      </trkpt>
      <trkpt lat="44.22847" lon="6.65093">
        <ele>1906</ele>
        <time>2021-08-18T09:13:14Z</time>
      </trkpt>
      <trkpt lat="44.22843" lon="6.651">
        <ele>1907</ele>
        <time>2021-08-18T09:13:24Z</time>
      </trkpt>
      <trkpt lat="44.22837" lon="6.65104">
        <ele>1909</ele>
        <time>2021-08-18T09:13:35Z</time>
      </trkpt>
      <trkpt lat="44.22833" lon="6.65108">
        <ele>1912</ele>
        <time>2021-08-18T09:13:46Z</time>
      </trkpt>
      <trkpt lat="44.22832" lon="6.65113">
        <ele>1915</ele>
        <time>2021-08-18T09:13:56Z</time>
      </trkpt>
      <trkpt lat="44.22831" lon="6.65112">
        <ele>1915</ele>
        <time>2021-08-18T09:14:05Z</time>
      </trkpt>
      <trkpt lat="44.22828" lon="6.65115">
        <ele>1916</ele>
        <time>2021-08-18T09:14:14Z</time>
      </trkpt>
      <trkpt lat="44.22823" lon="6.65114">
        <ele>1916</ele>
        <time>2021-08-18T09:14:25Z</time>
      </trkpt>
      <trkpt lat="44.22822" lon="6.65117">
        <ele>1916</ele>
        <time>2021-08-18T09:14:34Z</time>
      </trkpt>
      <trkpt lat="44.2282" lon="6.65121">
        <ele>1917</ele>
        <time>2021-08-18T09:14:43Z</time>
      </trkpt>
      <trkpt lat="44.22814" lon="6.65129">
        <ele>1917</ele>
        <time>2021-08-18T09:14:53Z</time>
      </trkpt>
      <trkpt lat="44.22812" lon="6.65134">
        <ele>1920</ele>
        <time>2021-08-18T09:15:05Z</time>
      </trkpt>
      <trkpt lat="44.22816" lon="6.6513">
        <ele>1922</ele>
        <time>2021-08-18T09:15:16Z</time>
      </trkpt>
      <trkpt lat="44.22815" lon="6.65133">
        <ele>1922</ele>
        <time>2021-08-18T09:15:25Z</time>
      </trkpt>
      <trkpt lat="44.22818" lon="6.65132">
        <ele>1927</ele>
        <time>2021-08-18T09:15:42Z</time>
      </trkpt>
      <trkpt lat="44.22824" lon="6.65127">
        <ele>1937</ele>
        <time>2021-08-18T09:15:52Z</time>
      </trkpt>
      <trkpt lat="44.22825" lon="6.65125">
        <ele>1938</ele>
        <time>2021-08-18T09:16:01Z</time>
      </trkpt>
      <trkpt lat="44.22823" lon="6.6512">
        <ele>1941</ele>
        <time>2021-08-18T09:16:10Z</time>
      </trkpt>
      <trkpt lat="44.22824" lon="6.65124">
        <ele>1937</ele>
        <time>2021-08-18T09:16:23Z</time>
      </trkpt>
      <trkpt lat="44.22815" lon="6.65134">
        <ele>1929</ele>
        <time>2021-08-18T09:16:33Z</time>
      </trkpt>
      <trkpt lat="44.22813" lon="6.65134">
        <ele>1923</ele>
        <time>2021-08-18T09:16:43Z</time>
      </trkpt>
      <trkpt lat="44.22802" lon="6.65144">
        <ele>1925</ele>
        <time>2021-08-18T09:16:53Z</time>
      </trkpt>
      <trkpt lat="44.22797" lon="6.65142">
        <ele>1927</ele>
        <time>2021-08-18T09:17:07Z</time>
      </trkpt>
      <trkpt lat="44.22791" lon="6.65139">
        <ele>1927</ele>
        <time>2021-08-18T09:17:17Z</time>
      </trkpt>
      <trkpt lat="44.22788" lon="6.65136">
        <ele>1928</ele>
        <time>2021-08-18T09:17:28Z</time>
      </trkpt>
      <trkpt lat="44.22789" lon="6.65132">
        <ele>1932</ele>
        <time>2021-08-18T09:17:38Z</time>
      </trkpt>
      <trkpt lat="44.22787" lon="6.65132">
        <ele>1931</ele>
        <time>2021-08-18T09:17:47Z</time>
      </trkpt>
      <trkpt lat="44.22786" lon="6.65137">
        <ele>1931</ele>
        <time>2021-08-18T09:17:57Z</time>
      </trkpt>
      <trkpt lat="44.22784" lon="6.65145">
        <ele>1931</ele>
        <time>2021-08-18T09:18:06Z</time>
      </trkpt>
      <trkpt lat="44.22779" lon="6.65149">
        <ele>1933</ele>
        <time>2021-08-18T09:18:20Z</time>
      </trkpt>
      <trkpt lat="44.22777" lon="6.65151">
        <ele>1941</ele>
        <time>2021-08-18T09:18:30Z</time>
      </trkpt>
      <trkpt lat="44.22774" lon="6.6515">
        <ele>1944</ele>
        <time>2021-08-18T09:18:40Z</time>
      </trkpt>
      <trkpt lat="44.22765" lon="6.6515">
        <ele>1945</ele>
        <time>2021-08-18T09:18:50Z</time>
      </trkpt>
      <trkpt lat="44.22762" lon="6.65157">
        <ele>1945</ele>
        <time>2021-08-18T09:19:02Z</time>
      </trkpt>
      <trkpt lat="44.22757" lon="6.6516">
        <ele>1945</ele>
        <time>2021-08-18T09:19:11Z</time>
      </trkpt>
      <trkpt lat="44.22757" lon="6.65159">
        <ele>1950</ele>
        <time>2021-08-18T09:19:22Z</time>
      </trkpt>
      <trkpt lat="44.22754" lon="6.65161">
        <ele>1950</ele>
        <time>2021-08-18T09:19:31Z</time>
      </trkpt>
      <trkpt lat="44.22748" lon="6.65162">
        <ele>1950</ele>
        <time>2021-08-18T09:19:42Z</time>
      </trkpt>
      <trkpt lat="44.22747" lon="6.6516">
        <ele>1946</ele>
        <time>2021-08-18T09:19:55Z</time>
      </trkpt>
      <trkpt lat="44.22739" lon="6.65164">
        <ele>1945</ele>
        <time>2021-08-18T09:20:07Z</time>
      </trkpt>
      <trkpt lat="44.2274" lon="6.65158">
        <ele>1950</ele>
        <time>2021-08-18T09:20:17Z</time>
      </trkpt>
      <trkpt lat="44.22735" lon="6.65168">
        <ele>1950</ele>
        <time>2021-08-18T09:20:27Z</time>
      </trkpt>
      <trkpt lat="44.22729" lon="6.65166">
        <ele>1950</ele>
        <time>2021-08-18T09:20:37Z</time>
      </trkpt>
      <trkpt lat="44.22728" lon="6.65165">
        <ele>1950</ele>
        <time>2021-08-18T09:20:48Z</time>
      </trkpt>
      <trkpt lat="44.22724" lon="6.65164">
        <ele>1950</ele>
        <time>2021-08-18T09:20:57Z</time>
      </trkpt>
      <trkpt lat="44.22723" lon="6.65163">
        <ele>1950</ele>
        <time>2021-08-18T09:21:07Z</time>
      </trkpt>
      <trkpt lat="44.22726" lon="6.65164">
        <ele>1954</ele>
        <time>2021-08-18T09:21:16Z</time>
      </trkpt>
      <trkpt lat="44.22723" lon="6.65163">
        <ele>1956</ele>
        <time>2021-08-18T09:21:26Z</time>
      </trkpt>
      <trkpt lat="44.22723" lon="6.65166">
        <ele>1951</ele>
        <time>2021-08-18T09:21:40Z</time>
      </trkpt>
      <trkpt lat="44.22726" lon="6.65166">
        <ele>1948</ele>
        <time>2021-08-18T09:21:51Z</time>
      </trkpt>
      <trkpt lat="44.22725" lon="6.65167">
        <ele>1945</ele>
        <time>2021-08-18T09:22:01Z</time>
      </trkpt>
      <trkpt lat="44.22731" lon="6.65165">
        <ele>1941</ele>
        <time>2021-08-18T09:22:15Z</time>
      </trkpt>
      <trkpt lat="44.22723" lon="6.65164">
        <ele>1939</ele>
        <time>2021-08-18T09:22:24Z</time>
      </trkpt>
      <trkpt lat="44.22715" lon="6.65169">
        <ele>1944</ele>
        <time>2021-08-18T09:22:34Z</time>
      </trkpt>
      <trkpt lat="44.22711" lon="6.6517">
        <ele>1952</ele>
        <time>2021-08-18T09:22:44Z</time>
      </trkpt>
      <trkpt lat="44.22706" lon="6.65173">
        <ele>1954</ele>
        <time>2021-08-18T09:22:54Z</time>
      </trkpt>
      <trkpt lat="44.227" lon="6.65178">
        <ele>1957</ele>
        <time>2021-08-18T09:23:04Z</time>
      </trkpt>
      <trkpt lat="44.22696" lon="6.65175">
        <ele>1958</ele>
        <time>2021-08-18T09:23:13Z</time>
      </trkpt>
      <trkpt lat="44.22692" lon="6.65172">
        <ele>1958</ele>
        <time>2021-08-18T09:23:24Z</time>
      </trkpt>
      <trkpt lat="44.22688" lon="6.65171">
        <ele>1962</ele>
        <time>2021-08-18T09:23:34Z</time>
      </trkpt>
      <trkpt lat="44.22683" lon="6.65176">
        <ele>1963</ele>
        <time>2021-08-18T09:23:44Z</time>
      </trkpt>
      <trkpt lat="44.22679" lon="6.65179">
        <ele>1965</ele>
        <time>2021-08-18T09:23:57Z</time>
      </trkpt>
      <trkpt lat="44.22672" lon="6.65179">
        <ele>1965</ele>
        <time>2021-08-18T09:24:06Z</time>
      </trkpt>
      <trkpt lat="44.2267" lon="6.6518">
        <ele>1970</ele>
        <time>2021-08-18T09:24:16Z</time>
      </trkpt>
      <trkpt lat="44.22668" lon="6.6518">
        <ele>1967</ele>
        <time>2021-08-18T09:24:30Z</time>
      </trkpt>
      <trkpt lat="44.22656" lon="6.65183">
        <ele>1967</ele>
        <time>2021-08-18T09:24:41Z</time>
      </trkpt>
      <trkpt lat="44.22648" lon="6.65181">
        <ele>1967</ele>
        <time>2021-08-18T09:24:50Z</time>
      </trkpt>
      <trkpt lat="44.22651" lon="6.6517">
        <ele>1967</ele>
        <time>2021-08-18T09:24:59Z</time>
      </trkpt>
      <trkpt lat="44.22647" lon="6.65163">
        <ele>1967</ele>
        <time>2021-08-18T09:25:08Z</time>
      </trkpt>
      <trkpt lat="44.22639" lon="6.65155">
        <ele>1973</ele>
        <time>2021-08-18T09:25:21Z</time>
      </trkpt>
      <trkpt lat="44.22632" lon="6.65154">
        <ele>1974</ele>
        <time>2021-08-18T09:25:30Z</time>
      </trkpt>
      <trkpt lat="44.22623" lon="6.65149">
        <ele>1978</ele>
        <time>2021-08-18T09:25:41Z</time>
      </trkpt>
      <trkpt lat="44.22618" lon="6.65144">
        <ele>1983</ele>
        <time>2021-08-18T09:25:50Z</time>
      </trkpt>
      <trkpt lat="44.22617" lon="6.65133">
        <ele>1989</ele>
        <time>2021-08-18T09:26:01Z</time>
      </trkpt>
      <trkpt lat="44.22606" lon="6.65136">
        <ele>1989</ele>
        <time>2021-08-18T09:26:10Z</time>
      </trkpt>
      <trkpt lat="44.22597" lon="6.65128">
        <ele>1989</ele>
        <time>2021-08-18T09:26:19Z</time>
      </trkpt>
      <trkpt lat="44.22604" lon="6.65126">
        <ele>1996</ele>
        <time>2021-08-18T09:26:29Z</time>
      </trkpt>
      <trkpt lat="44.22609" lon="6.65121">
        <ele>2000</ele>
        <time>2021-08-18T09:26:39Z</time>
      </trkpt>
      <trkpt lat="44.22606" lon="6.65115">
        <ele>1993</ele>
        <time>2021-08-18T09:26:50Z</time>
      </trkpt>
      <trkpt lat="44.22606" lon="6.65107">
        <ele>1989</ele>
        <time>2021-08-18T09:26:59Z</time>
      </trkpt>
      <trkpt lat="44.22601" lon="6.65104">
        <ele>1985</ele>
        <time>2021-08-18T09:27:08Z</time>
      </trkpt>
      <trkpt lat="44.22597" lon="6.651">
        <ele>1985</ele>
        <time>2021-08-18T09:27:17Z</time>
      </trkpt>
      <trkpt lat="44.2259" lon="6.65101">
        <ele>1985</ele>
        <time>2021-08-18T09:27:27Z</time>
      </trkpt>
      <trkpt lat="44.22583" lon="6.65098">
        <ele>1987</ele>
        <time>2021-08-18T09:27:37Z</time>
      </trkpt>
      <trkpt lat="44.22578" lon="6.65103">
        <ele>1988</ele>
        <time>2021-08-18T09:27:48Z</time>
      </trkpt>
      <trkpt lat="44.22578" lon="6.65106">
        <ele>1990</ele>
        <time>2021-08-18T09:27:58Z</time>
      </trkpt>
      <trkpt lat="44.22573" lon="6.65112">
        <ele>1991</ele>
        <time>2021-08-18T09:28:07Z</time>
      </trkpt>
      <trkpt lat="44.2257" lon="6.65113">
        <ele>1991</ele>
        <time>2021-08-18T09:28:16Z</time>
      </trkpt>
      <trkpt lat="44.22566" lon="6.65114">
        <ele>1991</ele>
        <time>2021-08-18T09:28:27Z</time>
      </trkpt>
      <trkpt lat="44.22558" lon="6.65118">
        <ele>1993</ele>
        <time>2021-08-18T09:28:37Z</time>
      </trkpt>
      <trkpt lat="44.22554" lon="6.65122">
        <ele>1994</ele>
        <time>2021-08-18T09:28:47Z</time>
      </trkpt>
      <trkpt lat="44.22549" lon="6.65125">
        <ele>1994</ele>
        <time>2021-08-18T09:29:01Z</time>
      </trkpt>
      <trkpt lat="44.22546" lon="6.65126">
        <ele>1994</ele>
        <time>2021-08-18T09:29:12Z</time>
      </trkpt>
      <trkpt lat="44.22547" lon="6.65134">
        <ele>1996</ele>
        <time>2021-08-18T09:29:22Z</time>
      </trkpt>
      <trkpt lat="44.22546" lon="6.65144">
        <ele>1996</ele>
        <time>2021-08-18T09:29:34Z</time>
      </trkpt>
      <trkpt lat="44.22544" lon="6.6515">
        <ele>1997</ele>
        <time>2021-08-18T09:29:43Z</time>
      </trkpt>
      <trkpt lat="44.22538" lon="6.65154">
        <ele>1997</ele>
        <time>2021-08-18T09:29:53Z</time>
      </trkpt>
      <trkpt lat="44.22536" lon="6.65159">
        <ele>2001</ele>
        <time>2021-08-18T09:30:03Z</time>
      </trkpt>
      <trkpt lat="44.22541" lon="6.65165">
        <ele>2003</ele>
        <time>2021-08-18T09:30:14Z</time>
      </trkpt>
      <trkpt lat="44.2254" lon="6.65172">
        <ele>2006</ele>
        <time>2021-08-18T09:30:24Z</time>
      </trkpt>
      <trkpt lat="44.22538" lon="6.65177">
        <ele>2006</ele>
        <time>2021-08-18T09:30:33Z</time>
      </trkpt>
      <trkpt lat="44.22538" lon="6.65183">
        <ele>2011</ele>
        <time>2021-08-18T09:30:45Z</time>
      </trkpt>
      <trkpt lat="44.22535" lon="6.6519">
        <ele>2014</ele>
        <time>2021-08-18T09:30:54Z</time>
      </trkpt>
      <trkpt lat="44.2253" lon="6.65192">
        <ele>2014</ele>
        <time>2021-08-18T09:31:04Z</time>
      </trkpt>
      <trkpt lat="44.22531" lon="6.65188">
        <ele>2015</ele>
        <time>2021-08-18T09:31:18Z</time>
      </trkpt>
      <trkpt lat="44.22522" lon="6.65186">
        <ele>2017</ele>
        <time>2021-08-18T09:31:40Z</time>
      </trkpt>
      <trkpt lat="44.22519" lon="6.6518">
        <ele>2028</ele>
        <time>2021-08-18T09:31:51Z</time>
      </trkpt>
      <trkpt lat="44.22523" lon="6.65183">
        <ele>2026</ele>
        <time>2021-08-18T09:32:03Z</time>
      </trkpt>
      <trkpt lat="44.22523" lon="6.65183">
        <ele>2023</ele>
        <time>2021-08-18T09:32:13Z</time>
      </trkpt>
      <trkpt lat="44.22523" lon="6.65178">
        <ele>2023</ele>
        <time>2021-08-18T09:32:22Z</time>
      </trkpt>
      <trkpt lat="44.22529" lon="6.65179">
        <ele>2023</ele>
        <time>2021-08-18T09:32:31Z</time>
      </trkpt>
      <trkpt lat="44.22529" lon="6.6518">
        <ele>2022</ele>
        <time>2021-08-18T09:32:41Z</time>
      </trkpt>
      <trkpt lat="44.2253" lon="6.6518">
        <ele>2033</ele>
        <time>2021-08-18T09:32:54Z</time>
      </trkpt>
      <trkpt lat="44.22532" lon="6.65185">
        <ele>2036</ele>
        <time>2021-08-18T09:33:07Z</time>
      </trkpt>
      <trkpt lat="44.22528" lon="6.65187">
        <ele>2032</ele>
        <time>2021-08-18T09:33:17Z</time>
      </trkpt>
      <trkpt lat="44.22523" lon="6.65191">
        <ele>2030</ele>
        <time>2021-08-18T09:33:27Z</time>
      </trkpt>
      <trkpt lat="44.22523" lon="6.65195">
        <ele>2030</ele>
        <time>2021-08-18T09:33:37Z</time>
      </trkpt>
      <trkpt lat="44.22526" lon="6.65208">
        <ele>2024</ele>
        <time>2021-08-18T09:33:47Z</time>
      </trkpt>
      <trkpt lat="44.2253" lon="6.65213">
        <ele>2016</ele>
        <time>2021-08-18T09:33:57Z</time>
      </trkpt>
      <trkpt lat="44.22534" lon="6.65219">
        <ele>2016</ele>
        <time>2021-08-18T09:34:09Z</time>
      </trkpt>
      <trkpt lat="44.22532" lon="6.65224">
        <ele>2025</ele>
        <time>2021-08-18T09:34:23Z</time>
      </trkpt>
      <trkpt lat="44.22531" lon="6.65226">
        <ele>2027</ele>
        <time>2021-08-18T09:34:33Z</time>
      </trkpt>
      <trkpt lat="44.22535" lon="6.65232">
        <ele>2027</ele>
        <time>2021-08-18T09:34:44Z</time>
      </trkpt>
      <trkpt lat="44.22538" lon="6.65235">
        <ele>2027</ele>
        <time>2021-08-18T09:34:55Z</time>
      </trkpt>
      <trkpt lat="44.22543" lon="6.65247">
        <ele>2030</ele>
        <time>2021-08-18T09:35:06Z</time>
      </trkpt>
      <trkpt lat="44.22547" lon="6.65255">
        <ele>2030</ele>
        <time>2021-08-18T09:35:16Z</time>
      </trkpt>
      <trkpt lat="44.22554" lon="6.65262">
        <ele>2030</ele>
        <time>2021-08-18T09:35:27Z</time>
      </trkpt>
      <trkpt lat="44.22559" lon="6.65263">
        <ele>2030</ele>
        <time>2021-08-18T09:35:36Z</time>
      </trkpt>
      <trkpt lat="44.22563" lon="6.65268">
        <ele>2030</ele>
        <time>2021-08-18T09:35:49Z</time>
      </trkpt>
      <trkpt lat="44.22562" lon="6.65272">
        <ele>2030</ele>
        <time>2021-08-18T09:35:59Z</time>
      </trkpt>
      <trkpt lat="44.22568" lon="6.65272">
        <ele>2030</ele>
        <time>2021-08-18T09:36:11Z</time>
      </trkpt>
      <trkpt lat="44.22565" lon="6.65276">
        <ele>2031</ele>
        <time>2021-08-18T09:36:20Z</time>
      </trkpt>
      <trkpt lat="44.22569" lon="6.65278">
        <ele>2033</ele>
        <time>2021-08-18T09:36:34Z</time>
      </trkpt>
      <trkpt lat="44.22573" lon="6.65281">
        <ele>2033</ele>
        <time>2021-08-18T09:36:48Z</time>
      </trkpt>
      <trkpt lat="44.22574" lon="6.65284">
        <ele>2033</ele>
        <time>2021-08-18T09:36:57Z</time>
      </trkpt>
      <trkpt lat="44.22569" lon="6.65286">
        <ele>2037</ele>
        <time>2021-08-18T09:37:07Z</time>
      </trkpt>
      <trkpt lat="44.22567" lon="6.65289">
        <ele>2039</ele>
        <time>2021-08-18T09:37:17Z</time>
      </trkpt>
      <trkpt lat="44.22565" lon="6.65293">
        <ele>2039</ele>
        <time>2021-08-18T09:37:30Z</time>
      </trkpt>
      <trkpt lat="44.22568" lon="6.65294">
        <ele>2039</ele>
        <time>2021-08-18T09:37:42Z</time>
      </trkpt>
      <trkpt lat="44.22572" lon="6.65295">
        <ele>2041</ele>
        <time>2021-08-18T09:37:52Z</time>
      </trkpt>
      <trkpt lat="44.22576" lon="6.65297">
        <ele>2043</ele>
        <time>2021-08-18T09:38:01Z</time>
      </trkpt>
      <trkpt lat="44.2258" lon="6.653">
        <ele>2043</ele>
        <time>2021-08-18T09:38:10Z</time>
      </trkpt>
      <trkpt lat="44.22584" lon="6.65303">
        <ele>2046</ele>
        <time>2021-08-18T09:38:23Z</time>
      </trkpt>
      <trkpt lat="44.22591" lon="6.65303">
        <ele>2046</ele>
        <time>2021-08-18T09:38:33Z</time>
      </trkpt>
      <trkpt lat="44.22597" lon="6.65304">
        <ele>2046</ele>
        <time>2021-08-18T09:38:43Z</time>
      </trkpt>
      <trkpt lat="44.22602" lon="6.65305">
        <ele>2048</ele>
        <time>2021-08-18T09:38:55Z</time>
      </trkpt>
      <trkpt lat="44.22606" lon="6.65308">
        <ele>2050</ele>
        <time>2021-08-18T09:39:04Z</time>
      </trkpt>
      <trkpt lat="44.2261" lon="6.65313">
        <ele>2052</ele>
        <time>2021-08-18T09:39:15Z</time>
      </trkpt>
      <trkpt lat="44.22612" lon="6.65317">
        <ele>2053</ele>
        <time>2021-08-18T09:39:24Z</time>
      </trkpt>
      <trkpt lat="44.22614" lon="6.65322">
        <ele>2055</ele>
        <time>2021-08-18T09:39:34Z</time>
      </trkpt>
      <trkpt lat="44.22615" lon="6.65327">
        <ele>2056</ele>
        <time>2021-08-18T09:39:43Z</time>
      </trkpt>
      <trkpt lat="44.22619" lon="6.65331">
        <ele>2058</ele>
        <time>2021-08-18T09:39:53Z</time>
      </trkpt>
      <trkpt lat="44.22622" lon="6.65335">
        <ele>2059</ele>
        <time>2021-08-18T09:40:03Z</time>
      </trkpt>
      <trkpt lat="44.22625" lon="6.65339">
        <ele>2061</ele>
        <time>2021-08-18T09:40:12Z</time>
      </trkpt>
      <trkpt lat="44.22626" lon="6.6534">
        <ele>2063</ele>
        <time>2021-08-18T09:40:27Z</time>
      </trkpt>
      <trkpt lat="44.22629" lon="6.65345">
        <ele>2063</ele>
        <time>2021-08-18T09:40:37Z</time>
      </trkpt>
      <trkpt lat="44.22632" lon="6.65352">
        <ele>2065</ele>
        <time>2021-08-18T09:40:46Z</time>
      </trkpt>
      <trkpt lat="44.22637" lon="6.65357">
        <ele>2066</ele>
        <time>2021-08-18T09:40:56Z</time>
      </trkpt>
      <trkpt lat="44.22635" lon="6.6536">
        <ele>2067</ele>
        <time>2021-08-18T09:41:06Z</time>
      </trkpt>
      <trkpt lat="44.2263" lon="6.65359">
        <ele>2069</ele>
        <time>2021-08-18T09:41:15Z</time>
      </trkpt>
      <trkpt lat="44.22623" lon="6.65356">
        <ele>2070</ele>
        <time>2021-08-18T09:41:26Z</time>
      </trkpt>
      <trkpt lat="44.22617" lon="6.65355">
        <ele>2071</ele>
        <time>2021-08-18T09:41:36Z</time>
      </trkpt>
      <trkpt lat="44.2261" lon="6.65354">
        <ele>2072</ele>
        <time>2021-08-18T09:41:46Z</time>
      </trkpt>
      <trkpt lat="44.22603" lon="6.65355">
        <ele>2073</ele>
        <time>2021-08-18T09:41:57Z</time>
      </trkpt>
      <trkpt lat="44.22596" lon="6.65355">
        <ele>2075</ele>
        <time>2021-08-18T09:42:07Z</time>
      </trkpt>
      <trkpt lat="44.22591" lon="6.65359">
        <ele>2077</ele>
        <time>2021-08-18T09:42:20Z</time>
      </trkpt>
      <trkpt lat="44.22596" lon="6.65361">
        <ele>2077</ele>
        <time>2021-08-18T09:42:32Z</time>
      </trkpt>
      <trkpt lat="44.226" lon="6.65365">
        <ele>2077</ele>
        <time>2021-08-18T09:42:41Z</time>
      </trkpt>
      <trkpt lat="44.22604" lon="6.65368">
        <ele>2077</ele>
        <time>2021-08-18T09:42:50Z</time>
      </trkpt>
      <trkpt lat="44.22601" lon="6.6537">
        <ele>2078</ele>
        <time>2021-08-18T09:43:00Z</time>
      </trkpt>
      <trkpt lat="44.22596" lon="6.65371">
        <ele>2079</ele>
        <time>2021-08-18T09:43:11Z</time>
      </trkpt>
      <trkpt lat="44.22592" lon="6.65372">
        <ele>2081</ele>
        <time>2021-08-18T09:43:20Z</time>
      </trkpt>
      <trkpt lat="44.22587" lon="6.65375">
        <ele>2081</ele>
        <time>2021-08-18T09:43:29Z</time>
      </trkpt>
      <trkpt lat="44.22581" lon="6.65376">
        <ele>2083</ele>
        <time>2021-08-18T09:43:40Z</time>
      </trkpt>
      <trkpt lat="44.22576" lon="6.65377">
        <ele>2084</ele>
        <time>2021-08-18T09:43:49Z</time>
      </trkpt>
      <trkpt lat="44.22572" lon="6.65379">
        <ele>2086</ele>
        <time>2021-08-18T09:43:59Z</time>
      </trkpt>
      <trkpt lat="44.22568" lon="6.65383">
        <ele>2087</ele>
        <time>2021-08-18T09:44:12Z</time>
      </trkpt>
      <trkpt lat="44.22565" lon="6.65388">
        <ele>2088</ele>
        <time>2021-08-18T09:44:24Z</time>
      </trkpt>
      <trkpt lat="44.22563" lon="6.6539">
        <ele>2090</ele>
        <time>2021-08-18T09:44:36Z</time>
      </trkpt>
      <trkpt lat="44.22562" lon="6.65394">
        <ele>2090</ele>
        <time>2021-08-18T09:44:47Z</time>
      </trkpt>
      <trkpt lat="44.22559" lon="6.65393">
        <ele>2091</ele>
        <time>2021-08-18T09:44:57Z</time>
      </trkpt>
      <trkpt lat="44.22557" lon="6.65393">
        <ele>2094</ele>
        <time>2021-08-18T09:45:55Z</time>
      </trkpt>
      <trkpt lat="44.22555" lon="6.65394">
        <ele>2095</ele>
        <time>2021-08-18T09:46:04Z</time>
      </trkpt>
      <trkpt lat="44.22557" lon="6.65393">
        <ele>2098</ele>
        <time>2021-08-18T09:46:50Z</time>
      </trkpt>
      <trkpt lat="44.22558" lon="6.65391">
        <ele>2098</ele>
        <time>2021-08-18T09:47:36Z</time>
      </trkpt>
      <trkpt lat="44.22556" lon="6.65391">
        <ele>2098</ele>
        <time>2021-08-18T09:47:45Z</time>
      </trkpt>
      <trkpt lat="44.22551" lon="6.65395">
        <ele>2098</ele>
        <time>2021-08-18T09:47:56Z</time>
      </trkpt>
      <trkpt lat="44.22547" lon="6.65397">
        <ele>2098</ele>
        <time>2021-08-18T09:48:08Z</time>
      </trkpt>
      <trkpt lat="44.22544" lon="6.654">
        <ele>2098</ele>
        <time>2021-08-18T09:48:20Z</time>
      </trkpt>
      <trkpt lat="44.22543" lon="6.65398">
        <ele>2098</ele>
        <time>2021-08-18T09:48:29Z</time>
      </trkpt>
      <trkpt lat="44.22543" lon="6.65395">
        <ele>2100</ele>
        <time>2021-08-18T09:48:39Z</time>
      </trkpt>
      <trkpt lat="44.22543" lon="6.6539">
        <ele>2104</ele>
        <time>2021-08-18T09:48:48Z</time>
      </trkpt>
      <trkpt lat="44.22537" lon="6.65391">
        <ele>2106</ele>
        <time>2021-08-18T09:48:57Z</time>
      </trkpt>
      <trkpt lat="44.22533" lon="6.65395">
        <ele>2106</ele>
        <time>2021-08-18T09:49:06Z</time>
      </trkpt>
      <trkpt lat="44.22529" lon="6.65398">
        <ele>2106</ele>
        <time>2021-08-18T09:49:15Z</time>
      </trkpt>
      <trkpt lat="44.22527" lon="6.65401">
        <ele>2106</ele>
        <time>2021-08-18T09:49:24Z</time>
      </trkpt>
      <trkpt lat="44.22524" lon="6.65405">
        <ele>2106</ele>
        <time>2021-08-18T09:49:34Z</time>
      </trkpt>
      <trkpt lat="44.22522" lon="6.65408">
        <ele>2106</ele>
        <time>2021-08-18T09:49:47Z</time>
      </trkpt>
      <trkpt lat="44.22522" lon="6.65413">
        <ele>2110</ele>
        <time>2021-08-18T09:50:01Z</time>
      </trkpt>
      <trkpt lat="44.22527" lon="6.65416">
        <ele>2111</ele>
        <time>2021-08-18T09:50:13Z</time>
      </trkpt>
      <trkpt lat="44.22523" lon="6.65419">
        <ele>2114</ele>
        <time>2021-08-18T09:50:26Z</time>
      </trkpt>
      <trkpt lat="44.22524" lon="6.65423">
        <ele>2114</ele>
        <time>2021-08-18T09:50:35Z</time>
      </trkpt>
      <trkpt lat="44.2252" lon="6.65427">
        <ele>2115</ele>
        <time>2021-08-18T09:50:44Z</time>
      </trkpt>
      <trkpt lat="44.22515" lon="6.65433">
        <ele>2117</ele>
        <time>2021-08-18T09:50:54Z</time>
      </trkpt>
      <trkpt lat="44.22512" lon="6.65427">
        <ele>2117</ele>
        <time>2021-08-18T09:51:10Z</time>
      </trkpt>
      <trkpt lat="44.22508" lon="6.65422">
        <ele>2118</ele>
        <time>2021-08-18T09:51:19Z</time>
      </trkpt>
      <trkpt lat="44.22506" lon="6.65426">
        <ele>2120</ele>
        <time>2021-08-18T09:51:29Z</time>
      </trkpt>
      <trkpt lat="44.22507" lon="6.65433">
        <ele>2121</ele>
        <time>2021-08-18T09:51:38Z</time>
      </trkpt>
      <trkpt lat="44.22506" lon="6.65437">
        <ele>2121</ele>
        <time>2021-08-18T09:51:47Z</time>
      </trkpt>
      <trkpt lat="44.22501" lon="6.65435">
        <ele>2124</ele>
        <time>2021-08-18T09:51:56Z</time>
      </trkpt>
      <trkpt lat="44.22497" lon="6.65433">
        <ele>2124</ele>
        <time>2021-08-18T09:52:05Z</time>
      </trkpt>
      <trkpt lat="44.22491" lon="6.6543">
        <ele>2124</ele>
        <time>2021-08-18T09:52:14Z</time>
      </trkpt>
      <trkpt lat="44.22489" lon="6.6543">
        <ele>2124</ele>
        <time>2021-08-18T09:52:24Z</time>
      </trkpt>
      <trkpt lat="44.22484" lon="6.65431">
        <ele>2124</ele>
        <time>2021-08-18T09:52:34Z</time>
      </trkpt>
      <trkpt lat="44.22483" lon="6.65429">
        <ele>2126</ele>
        <time>2021-08-18T09:52:52Z</time>
      </trkpt>
      <trkpt lat="44.22481" lon="6.65421">
        <ele>2126</ele>
        <time>2021-08-18T09:53:02Z</time>
      </trkpt>
      <trkpt lat="44.22481" lon="6.65417">
        <ele>2126</ele>
        <time>2021-08-18T09:53:17Z</time>
      </trkpt>
      <trkpt lat="44.22482" lon="6.65415">
        <ele>2126</ele>
        <time>2021-08-18T09:53:30Z</time>
      </trkpt>
      <trkpt lat="44.22479" lon="6.65405">
        <ele>2126</ele>
        <time>2021-08-18T09:53:39Z</time>
      </trkpt>
      <trkpt lat="44.22477" lon="6.65395">
        <ele>2126</ele>
        <time>2021-08-18T09:53:50Z</time>
      </trkpt>
      <trkpt lat="44.22476" lon="6.65388">
        <ele>2126</ele>
        <time>2021-08-18T09:54:01Z</time>
      </trkpt>
      <trkpt lat="44.22475" lon="6.65384">
        <ele>2128</ele>
        <time>2021-08-18T09:54:11Z</time>
      </trkpt>
      <trkpt lat="44.22474" lon="6.65383">
        <ele>2129</ele>
        <time>2021-08-18T09:54:21Z</time>
      </trkpt>
      <trkpt lat="44.22472" lon="6.65384">
        <ele>2136</ele>
        <time>2021-08-18T09:55:00Z</time>
      </trkpt>
      <trkpt lat="44.22472" lon="6.65385">
        <ele>2136</ele>
        <time>2021-08-18T09:55:32Z</time>
      </trkpt>
      <trkpt lat="44.22474" lon="6.65385">
        <ele>2136</ele>
        <time>2021-08-18T09:56:12Z</time>
      </trkpt>
      <trkpt lat="44.22475" lon="6.65385">
        <ele>2136</ele>
        <time>2021-08-18T09:56:29Z</time>
      </trkpt>
      <trkpt lat="44.22477" lon="6.65385">
        <ele>2136</ele>
        <time>2021-08-18T09:56:48Z</time>
      </trkpt>
      <trkpt lat="44.22476" lon="6.65386">
        <ele>2136</ele>
        <time>2021-08-18T09:57:00Z</time>
      </trkpt>
      <trkpt lat="44.22475" lon="6.65386">
        <ele>2136</ele>
        <time>2021-08-18T09:57:15Z</time>
      </trkpt>
      <trkpt lat="44.22474" lon="6.65385">
        <ele>2136</ele>
        <time>2021-08-18T09:57:47Z</time>
      </trkpt>
      <trkpt lat="44.22473" lon="6.65386">
        <ele>2137</ele>
        <time>2021-08-18T09:58:27Z</time>
      </trkpt>
      <trkpt lat="44.22475" lon="6.65385">
        <ele>2137</ele>
        <time>2021-08-18T09:58:46Z</time>
      </trkpt>
      <trkpt lat="44.22473" lon="6.65385">
        <ele>2137</ele>
        <time>2021-08-18T09:59:24Z</time>
      </trkpt>
      <trkpt lat="44.22476" lon="6.65384">
        <ele>2137</ele>
        <time>2021-08-18T10:00:12Z</time>
      </trkpt>
      <trkpt lat="44.22475" lon="6.65385">
        <ele>2137</ele>
        <time>2021-08-18T10:00:42Z</time>
      </trkpt>
      <trkpt lat="44.22475" lon="6.65384">
        <ele>2137</ele>
        <time>2021-08-18T10:00:55Z</time>
      </trkpt>
      <trkpt lat="44.22477" lon="6.65387">
        <ele>2137</ele>
        <time>2021-08-18T10:01:06Z</time>
      </trkpt>
      <trkpt lat="44.22478" lon="6.65394">
        <ele>2137</ele>
        <time>2021-08-18T10:01:15Z</time>
      </trkpt>
      <trkpt lat="44.2248" lon="6.65403">
        <ele>2137</ele>
        <time>2021-08-18T10:01:25Z</time>
      </trkpt>
      <trkpt lat="44.22482" lon="6.65408">
        <ele>2137</ele>
        <time>2021-08-18T10:01:35Z</time>
      </trkpt>
      <trkpt lat="44.22482" lon="6.6541">
        <ele>2137</ele>
        <time>2021-08-18T10:01:46Z</time>
      </trkpt>
      <trkpt lat="44.22478" lon="6.65406">
        <ele>2137</ele>
        <time>2021-08-18T10:01:59Z</time>
      </trkpt>
      <trkpt lat="44.22482" lon="6.65413">
        <ele>2126</ele>
        <time>2021-08-18T10:02:09Z</time>
      </trkpt>
      <trkpt lat="44.22482" lon="6.65415">
        <ele>2132</ele>
        <time>2021-08-18T10:02:37Z</time>
      </trkpt>
      <trkpt lat="44.22482" lon="6.65418">
        <ele>2132</ele>
        <time>2021-08-18T10:02:46Z</time>
      </trkpt>
      <trkpt lat="44.22482" lon="6.65425">
        <ele>2129</ele>
        <time>2021-08-18T10:02:56Z</time>
      </trkpt>
      <trkpt lat="44.22483" lon="6.6543">
        <ele>2129</ele>
        <time>2021-08-18T10:03:05Z</time>
      </trkpt>
      <trkpt lat="44.22487" lon="6.65434">
        <ele>2129</ele>
        <time>2021-08-18T10:03:14Z</time>
      </trkpt>
      <trkpt lat="44.22489" lon="6.65434">
        <ele>2129</ele>
        <time>2021-08-18T10:03:23Z</time>
      </trkpt>
      <trkpt lat="44.22492" lon="6.65434">
        <ele>2129</ele>
        <time>2021-08-18T10:03:32Z</time>
      </trkpt>
      <trkpt lat="44.225" lon="6.65436">
        <ele>2128</ele>
        <time>2021-08-18T10:03:42Z</time>
      </trkpt>
      <trkpt lat="44.22501" lon="6.65437">
        <ele>2128</ele>
        <time>2021-08-18T10:03:52Z</time>
      </trkpt>
      <trkpt lat="44.22507" lon="6.65438">
        <ele>2128</ele>
        <time>2021-08-18T10:04:02Z</time>
      </trkpt>
      <trkpt lat="44.22505" lon="6.65427">
        <ele>2127</ele>
        <time>2021-08-18T10:04:11Z</time>
      </trkpt>
      <trkpt lat="44.22504" lon="6.65422">
        <ele>2125</ele>
        <time>2021-08-18T10:04:23Z</time>
      </trkpt>
      <trkpt lat="44.22504" lon="6.65422">
        <ele>2125</ele>
        <time>2021-08-18T10:04:33Z</time>
      </trkpt>
      <trkpt lat="44.22511" lon="6.65428">
        <ele>2124</ele>
        <time>2021-08-18T10:04:44Z</time>
      </trkpt>
      <trkpt lat="44.22511" lon="6.65432">
        <ele>2121</ele>
        <time>2021-08-18T10:05:02Z</time>
      </trkpt>
      <trkpt lat="44.22519" lon="6.65427">
        <ele>2120</ele>
        <time>2021-08-18T10:05:12Z</time>
      </trkpt>
      <trkpt lat="44.22523" lon="6.65421">
        <ele>2119</ele>
        <time>2021-08-18T10:05:22Z</time>
      </trkpt>
      <trkpt lat="44.22525" lon="6.65417">
        <ele>2119</ele>
        <time>2021-08-18T10:05:31Z</time>
      </trkpt>
      <trkpt lat="44.22521" lon="6.65413">
        <ele>2119</ele>
        <time>2021-08-18T10:05:41Z</time>
      </trkpt>
      <trkpt lat="44.2252" lon="6.65408">
        <ele>2117</ele>
        <time>2021-08-18T10:05:50Z</time>
      </trkpt>
      <trkpt lat="44.22523" lon="6.65404">
        <ele>2115</ele>
        <time>2021-08-18T10:05:59Z</time>
      </trkpt>
      <trkpt lat="44.22527" lon="6.654">
        <ele>2112</ele>
        <time>2021-08-18T10:06:11Z</time>
      </trkpt>
      <trkpt lat="44.22533" lon="6.65395">
        <ele>2110</ele>
        <time>2021-08-18T10:06:20Z</time>
      </trkpt>
      <trkpt lat="44.22539" lon="6.65395">
        <ele>2109</ele>
        <time>2021-08-18T10:06:31Z</time>
      </trkpt>
      <trkpt lat="44.22539" lon="6.65398">
        <ele>2104</ele>
        <time>2021-08-18T10:06:46Z</time>
      </trkpt>
      <trkpt lat="44.22542" lon="6.65396">
        <ele>2103</ele>
        <time>2021-08-18T10:06:55Z</time>
      </trkpt>
      <trkpt lat="44.22547" lon="6.65394">
        <ele>2102</ele>
        <time>2021-08-18T10:07:06Z</time>
      </trkpt>
      <trkpt lat="44.22551" lon="6.65391">
        <ele>2101</ele>
        <time>2021-08-18T10:07:15Z</time>
      </trkpt>
      <trkpt lat="44.22552" lon="6.65391">
        <ele>2101</ele>
        <time>2021-08-18T10:07:28Z</time>
      </trkpt>
      <trkpt lat="44.22558" lon="6.65391">
        <ele>2100</ele>
        <time>2021-08-18T10:07:40Z</time>
      </trkpt>
      <trkpt lat="44.22561" lon="6.65389">
        <ele>2099</ele>
        <time>2021-08-18T10:07:50Z</time>
      </trkpt>
      <trkpt lat="44.22563" lon="6.65385">
        <ele>2098</ele>
        <time>2021-08-18T10:07:59Z</time>
      </trkpt>
      <trkpt lat="44.22566" lon="6.65379">
        <ele>2097</ele>
        <time>2021-08-18T10:08:09Z</time>
      </trkpt>
      <trkpt lat="44.22568" lon="6.65376">
        <ele>2094</ele>
        <time>2021-08-18T10:08:19Z</time>
      </trkpt>
      <trkpt lat="44.22575" lon="6.65372">
        <ele>2094</ele>
        <time>2021-08-18T10:08:28Z</time>
      </trkpt>
      <trkpt lat="44.22581" lon="6.65368">
        <ele>2094</ele>
        <time>2021-08-18T10:08:37Z</time>
      </trkpt>
      <trkpt lat="44.22588" lon="6.65366">
        <ele>2094</ele>
        <time>2021-08-18T10:08:47Z</time>
      </trkpt>
      <trkpt lat="44.22595" lon="6.65366">
        <ele>2093</ele>
        <time>2021-08-18T10:08:57Z</time>
      </trkpt>
      <trkpt lat="44.226" lon="6.65365">
        <ele>2091</ele>
        <time>2021-08-18T10:09:06Z</time>
      </trkpt>
      <trkpt lat="44.22601" lon="6.65364">
        <ele>2087</ele>
        <time>2021-08-18T10:09:15Z</time>
      </trkpt>
      <trkpt lat="44.22594" lon="6.65358">
        <ele>2084</ele>
        <time>2021-08-18T10:09:25Z</time>
      </trkpt>
      <trkpt lat="44.22592" lon="6.65354">
        <ele>2081</ele>
        <time>2021-08-18T10:09:34Z</time>
      </trkpt>
      <trkpt lat="44.22598" lon="6.65353">
        <ele>2080</ele>
        <time>2021-08-18T10:09:44Z</time>
      </trkpt>
      <trkpt lat="44.22606" lon="6.65353">
        <ele>2078</ele>
        <time>2021-08-18T10:09:53Z</time>
      </trkpt>
      <trkpt lat="44.22615" lon="6.65354">
        <ele>2077</ele>
        <time>2021-08-18T10:10:03Z</time>
      </trkpt>
      <trkpt lat="44.22624" lon="6.65355">
        <ele>2076</ele>
        <time>2021-08-18T10:10:13Z</time>
      </trkpt>
      <trkpt lat="44.22631" lon="6.65358">
        <ele>2075</ele>
        <time>2021-08-18T10:10:23Z</time>
      </trkpt>
      <trkpt lat="44.22636" lon="6.65357">
        <ele>2073</ele>
        <time>2021-08-18T10:10:32Z</time>
      </trkpt>
      <trkpt lat="44.22631" lon="6.65348">
        <ele>2071</ele>
        <time>2021-08-18T10:10:42Z</time>
      </trkpt>
      <trkpt lat="44.22628" lon="6.65337">
        <ele>2070</ele>
        <time>2021-08-18T10:10:53Z</time>
      </trkpt>
      <trkpt lat="44.22622" lon="6.65333">
        <ele>2068</ele>
        <time>2021-08-18T10:11:02Z</time>
      </trkpt>
      <trkpt lat="44.22616" lon="6.65327">
        <ele>2066</ele>
        <time>2021-08-18T10:11:12Z</time>
      </trkpt>
      <trkpt lat="44.22614" lon="6.65318">
        <ele>2064</ele>
        <time>2021-08-18T10:11:22Z</time>
      </trkpt>
      <trkpt lat="44.22611" lon="6.65309">
        <ele>2061</ele>
        <time>2021-08-18T10:11:32Z</time>
      </trkpt>
      <trkpt lat="44.22607" lon="6.65304">
        <ele>2059</ele>
        <time>2021-08-18T10:11:41Z</time>
      </trkpt>
      <trkpt lat="44.22599" lon="6.65301">
        <ele>2057</ele>
        <time>2021-08-18T10:11:51Z</time>
      </trkpt>
      <trkpt lat="44.22589" lon="6.65302">
        <ele>2056</ele>
        <time>2021-08-18T10:12:01Z</time>
      </trkpt>
      <trkpt lat="44.22581" lon="6.65296">
        <ele>2055</ele>
        <time>2021-08-18T10:12:10Z</time>
      </trkpt>
      <trkpt lat="44.22575" lon="6.65292">
        <ele>2054</ele>
        <time>2021-08-18T10:12:19Z</time>
      </trkpt>
      <trkpt lat="44.22568" lon="6.6529">
        <ele>2052</ele>
        <time>2021-08-18T10:12:29Z</time>
      </trkpt>
      <trkpt lat="44.22563" lon="6.65289">
        <ele>2051</ele>
        <time>2021-08-18T10:12:39Z</time>
      </trkpt>
      <trkpt lat="44.22566" lon="6.65285">
        <ele>2048</ele>
        <time>2021-08-18T10:12:48Z</time>
      </trkpt>
      <trkpt lat="44.2257" lon="6.6528">
        <ele>2048</ele>
        <time>2021-08-18T10:12:57Z</time>
      </trkpt>
      <trkpt lat="44.22571" lon="6.65277">
        <ele>2046</ele>
        <time>2021-08-18T10:13:06Z</time>
      </trkpt>
      <trkpt lat="44.22568" lon="6.65275">
        <ele>2044</ele>
        <time>2021-08-18T10:13:15Z</time>
      </trkpt>
      <trkpt lat="44.22565" lon="6.65275">
        <ele>2042</ele>
        <time>2021-08-18T10:13:24Z</time>
      </trkpt>
      <trkpt lat="44.22562" lon="6.65271">
        <ele>2038</ele>
        <time>2021-08-18T10:13:37Z</time>
      </trkpt>
      <trkpt lat="44.22559" lon="6.65267">
        <ele>2037</ele>
        <time>2021-08-18T10:13:47Z</time>
      </trkpt>
      <trkpt lat="44.22559" lon="6.65262">
        <ele>2036</ele>
        <time>2021-08-18T10:13:56Z</time>
      </trkpt>
      <trkpt lat="44.22554" lon="6.6526">
        <ele>2034</ele>
        <time>2021-08-18T10:14:06Z</time>
      </trkpt>
      <trkpt lat="44.22551" lon="6.65252">
        <ele>2034</ele>
        <time>2021-08-18T10:14:16Z</time>
      </trkpt>
      <trkpt lat="44.22547" lon="6.65242">
        <ele>2034</ele>
        <time>2021-08-18T10:14:26Z</time>
      </trkpt>
      <trkpt lat="44.22541" lon="6.65236">
        <ele>2032</ele>
        <time>2021-08-18T10:14:37Z</time>
      </trkpt>
      <trkpt lat="44.22538" lon="6.65229">
        <ele>2028</ele>
        <time>2021-08-18T10:14:47Z</time>
      </trkpt>
      <trkpt lat="44.22533" lon="6.65222">
        <ele>2027</ele>
        <time>2021-08-18T10:14:58Z</time>
      </trkpt>
      <trkpt lat="44.22528" lon="6.65214">
        <ele>2026</ele>
        <time>2021-08-18T10:15:09Z</time>
      </trkpt>
      <trkpt lat="44.22528" lon="6.65204">
        <ele>2023</ele>
        <time>2021-08-18T10:15:19Z</time>
      </trkpt>
      <trkpt lat="44.22529" lon="6.65193">
        <ele>2021</ele>
        <time>2021-08-18T10:15:29Z</time>
      </trkpt>
      <trkpt lat="44.22535" lon="6.65187">
        <ele>2021</ele>
        <time>2021-08-18T10:15:38Z</time>
      </trkpt>
      <trkpt lat="44.22539" lon="6.65178">
        <ele>2020</ele>
        <time>2021-08-18T10:15:47Z</time>
      </trkpt>
      <trkpt lat="44.2254" lon="6.65169">
        <ele>2017</ele>
        <time>2021-08-18T10:15:56Z</time>
      </trkpt>
      <trkpt lat="44.22538" lon="6.65158">
        <ele>2016</ele>
        <time>2021-08-18T10:16:05Z</time>
      </trkpt>
      <trkpt lat="44.2254" lon="6.65154">
        <ele>2014</ele>
        <time>2021-08-18T10:16:14Z</time>
      </trkpt>
      <trkpt lat="44.22542" lon="6.65147">
        <ele>2014</ele>
        <time>2021-08-18T10:16:24Z</time>
      </trkpt>
      <trkpt lat="44.22544" lon="6.65134">
        <ele>2013</ele>
        <time>2021-08-18T10:16:33Z</time>
      </trkpt>
      <trkpt lat="44.22545" lon="6.65131">
        <ele>2007</ele>
        <time>2021-08-18T10:16:44Z</time>
      </trkpt>
      <trkpt lat="44.2255" lon="6.65129">
        <ele>2007</ele>
        <time>2021-08-18T10:16:54Z</time>
      </trkpt>
      <trkpt lat="44.22557" lon="6.65123">
        <ele>2006</ele>
        <time>2021-08-18T10:17:06Z</time>
      </trkpt>
      <trkpt lat="44.22562" lon="6.6512">
        <ele>2005</ele>
        <time>2021-08-18T10:17:15Z</time>
      </trkpt>
      <trkpt lat="44.2257" lon="6.6511">
        <ele>2003</ele>
        <time>2021-08-18T10:17:25Z</time>
      </trkpt>
      <trkpt lat="44.22575" lon="6.6511">
        <ele>2001</ele>
        <time>2021-08-18T10:17:34Z</time>
      </trkpt>
      <trkpt lat="44.22581" lon="6.65104">
        <ele>1999</ele>
        <time>2021-08-18T10:17:47Z</time>
      </trkpt>
      <trkpt lat="44.22587" lon="6.65106">
        <ele>1996</ele>
        <time>2021-08-18T10:17:57Z</time>
      </trkpt>
      <trkpt lat="44.22593" lon="6.65105">
        <ele>1994</ele>
        <time>2021-08-18T10:18:06Z</time>
      </trkpt>
      <trkpt lat="44.22599" lon="6.65104">
        <ele>1994</ele>
        <time>2021-08-18T10:18:19Z</time>
      </trkpt>
      <trkpt lat="44.22599" lon="6.6511">
        <ele>1993</ele>
        <time>2021-08-18T10:18:28Z</time>
      </trkpt>
      <trkpt lat="44.22599" lon="6.65118">
        <ele>1990</ele>
        <time>2021-08-18T10:18:40Z</time>
      </trkpt>
      <trkpt lat="44.22596" lon="6.65125">
        <ele>1989</ele>
        <time>2021-08-18T10:18:51Z</time>
      </trkpt>
      <trkpt lat="44.22599" lon="6.65129">
        <ele>1989</ele>
        <time>2021-08-18T10:19:01Z</time>
      </trkpt>
      <trkpt lat="44.22605" lon="6.65142">
        <ele>1986</ele>
        <time>2021-08-18T10:19:11Z</time>
      </trkpt>
      <trkpt lat="44.22611" lon="6.65152">
        <ele>1982</ele>
        <time>2021-08-18T10:19:20Z</time>
      </trkpt>
      <trkpt lat="44.22625" lon="6.65156">
        <ele>1982</ele>
        <time>2021-08-18T10:19:30Z</time>
      </trkpt>
      <trkpt lat="44.22635" lon="6.6516">
        <ele>1982</ele>
        <time>2021-08-18T10:19:41Z</time>
      </trkpt>
      <trkpt lat="44.22641" lon="6.65164">
        <ele>1984</ele>
        <time>2021-08-18T10:19:51Z</time>
      </trkpt>
      <trkpt lat="44.22647" lon="6.65169">
        <ele>1985</ele>
        <time>2021-08-18T10:20:00Z</time>
      </trkpt>
      <trkpt lat="44.22652" lon="6.6517">
        <ele>1985</ele>
        <time>2021-08-18T10:20:10Z</time>
      </trkpt>
      <trkpt lat="44.22661" lon="6.65171">
        <ele>1985</ele>
        <time>2021-08-18T10:20:20Z</time>
      </trkpt>
      <trkpt lat="44.22671" lon="6.65169">
        <ele>1985</ele>
        <time>2021-08-18T10:20:30Z</time>
      </trkpt>
      <trkpt lat="44.22679" lon="6.65167">
        <ele>1984</ele>
        <time>2021-08-18T10:20:40Z</time>
      </trkpt>
      <trkpt lat="44.22683" lon="6.65166">
        <ele>1983</ele>
        <time>2021-08-18T10:20:49Z</time>
      </trkpt>
      <trkpt lat="44.22688" lon="6.65165">
        <ele>1982</ele>
        <time>2021-08-18T10:21:02Z</time>
      </trkpt>
      <trkpt lat="44.22692" lon="6.65165">
        <ele>1982</ele>
        <time>2021-08-18T10:21:13Z</time>
      </trkpt>
      <trkpt lat="44.22701" lon="6.65173">
        <ele>1974</ele>
        <time>2021-08-18T10:21:23Z</time>
      </trkpt>
      <trkpt lat="44.22707" lon="6.65167">
        <ele>1972</ele>
        <time>2021-08-18T10:21:32Z</time>
      </trkpt>
      <trkpt lat="44.22715" lon="6.65165">
        <ele>1969</ele>
        <time>2021-08-18T10:21:41Z</time>
      </trkpt>
      <trkpt lat="44.22723" lon="6.65171">
        <ele>1964</ele>
        <time>2021-08-18T10:21:51Z</time>
      </trkpt>
      <trkpt lat="44.22729" lon="6.65168">
        <ele>1962</ele>
        <time>2021-08-18T10:22:02Z</time>
      </trkpt>
      <trkpt lat="44.22733" lon="6.65161">
        <ele>1960</ele>
        <time>2021-08-18T10:22:12Z</time>
      </trkpt>
      <trkpt lat="44.22736" lon="6.65166">
        <ele>1957</ele>
        <time>2021-08-18T10:22:22Z</time>
      </trkpt>
      <trkpt lat="44.22742" lon="6.65165">
        <ele>1955</ele>
        <time>2021-08-18T10:22:34Z</time>
      </trkpt>
      <trkpt lat="44.22747" lon="6.65159">
        <ele>1954</ele>
        <time>2021-08-18T10:22:44Z</time>
      </trkpt>
      <trkpt lat="44.22755" lon="6.65155">
        <ele>1950</ele>
        <time>2021-08-18T10:22:54Z</time>
      </trkpt>
      <trkpt lat="44.22759" lon="6.65152">
        <ele>1949</ele>
        <time>2021-08-18T10:23:03Z</time>
      </trkpt>
      <trkpt lat="44.22767" lon="6.65151">
        <ele>1949</ele>
        <time>2021-08-18T10:23:13Z</time>
      </trkpt>
      <trkpt lat="44.22771" lon="6.6515">
        <ele>1945</ele>
        <time>2021-08-18T10:23:23Z</time>
      </trkpt>
      <trkpt lat="44.22776" lon="6.65139">
        <ele>1940</ele>
        <time>2021-08-18T10:23:33Z</time>
      </trkpt>
      <trkpt lat="44.22777" lon="6.65132">
        <ele>1938</ele>
        <time>2021-08-18T10:23:42Z</time>
      </trkpt>
      <trkpt lat="44.22783" lon="6.65132">
        <ele>1938</ele>
        <time>2021-08-18T10:23:53Z</time>
      </trkpt>
      <trkpt lat="44.2279" lon="6.65139">
        <ele>1933</ele>
        <time>2021-08-18T10:24:04Z</time>
      </trkpt>
      <trkpt lat="44.22791" lon="6.65142">
        <ele>1931</ele>
        <time>2021-08-18T10:24:13Z</time>
      </trkpt>
      <trkpt lat="44.228" lon="6.65137">
        <ele>1931</ele>
        <time>2021-08-18T10:24:23Z</time>
      </trkpt>
      <trkpt lat="44.22806" lon="6.65131">
        <ele>1931</ele>
        <time>2021-08-18T10:24:32Z</time>
      </trkpt>
      <trkpt lat="44.22813" lon="6.65122">
        <ele>1928</ele>
        <time>2021-08-18T10:24:43Z</time>
      </trkpt>
      <trkpt lat="44.22817" lon="6.65116">
        <ele>1925</ele>
        <time>2021-08-18T10:24:53Z</time>
      </trkpt>
      <trkpt lat="44.22822" lon="6.65113">
        <ele>1925</ele>
        <time>2021-08-18T10:25:03Z</time>
      </trkpt>
      <trkpt lat="44.22828" lon="6.65109">
        <ele>1922</ele>
        <time>2021-08-18T10:25:13Z</time>
      </trkpt>
      <trkpt lat="44.22833" lon="6.65103">
        <ele>1919</ele>
        <time>2021-08-18T10:25:22Z</time>
      </trkpt>
      <trkpt lat="44.22837" lon="6.65098">
        <ele>1918</ele>
        <time>2021-08-18T10:25:31Z</time>
      </trkpt>
      <trkpt lat="44.22842" lon="6.65089">
        <ele>1918</ele>
        <time>2021-08-18T10:25:40Z</time>
      </trkpt>
      <trkpt lat="44.2285" lon="6.65089">
        <ele>1918</ele>
        <time>2021-08-18T10:25:51Z</time>
      </trkpt>
      <trkpt lat="44.22856" lon="6.65082">
        <ele>1918</ele>
        <time>2021-08-18T10:26:00Z</time>
      </trkpt>
      <trkpt lat="44.22861" lon="6.65072">
        <ele>1916</ele>
        <time>2021-08-18T10:26:09Z</time>
      </trkpt>
      <trkpt lat="44.22867" lon="6.6506">
        <ele>1912</ele>
        <time>2021-08-18T10:26:18Z</time>
      </trkpt>
      <trkpt lat="44.22871" lon="6.65049">
        <ele>1908</ele>
        <time>2021-08-18T10:26:28Z</time>
      </trkpt>
      <trkpt lat="44.22879" lon="6.65041">
        <ele>1908</ele>
        <time>2021-08-18T10:26:37Z</time>
      </trkpt>
      <trkpt lat="44.22884" lon="6.6503">
        <ele>1905</ele>
        <time>2021-08-18T10:26:47Z</time>
      </trkpt>
      <trkpt lat="44.22887" lon="6.65018">
        <ele>1903</ele>
        <time>2021-08-18T10:26:56Z</time>
      </trkpt>
      <trkpt lat="44.2289" lon="6.6501">
        <ele>1902</ele>
        <time>2021-08-18T10:27:06Z</time>
      </trkpt>
      <trkpt lat="44.22898" lon="6.65008">
        <ele>1900</ele>
        <time>2021-08-18T10:27:15Z</time>
      </trkpt>
      <trkpt lat="44.22905" lon="6.64999">
        <ele>1898</ele>
        <time>2021-08-18T10:27:25Z</time>
      </trkpt>
      <trkpt lat="44.22913" lon="6.6499">
        <ele>1895</ele>
        <time>2021-08-18T10:27:35Z</time>
      </trkpt>
      <trkpt lat="44.2292" lon="6.6498">
        <ele>1892</ele>
        <time>2021-08-18T10:27:45Z</time>
      </trkpt>
      <trkpt lat="44.22926" lon="6.64969">
        <ele>1891</ele>
        <time>2021-08-18T10:27:54Z</time>
      </trkpt>
      <trkpt lat="44.2293" lon="6.64957">
        <ele>1888</ele>
        <time>2021-08-18T10:28:03Z</time>
      </trkpt>
      <trkpt lat="44.22933" lon="6.64944">
        <ele>1885</ele>
        <time>2021-08-18T10:28:13Z</time>
      </trkpt>
      <trkpt lat="44.22938" lon="6.64932">
        <ele>1883</ele>
        <time>2021-08-18T10:28:23Z</time>
      </trkpt>
      <trkpt lat="44.22943" lon="6.64921">
        <ele>1882</ele>
        <time>2021-08-18T10:28:33Z</time>
      </trkpt>
      <trkpt lat="44.22949" lon="6.64913">
        <ele>1879</ele>
        <time>2021-08-18T10:28:43Z</time>
      </trkpt>
      <trkpt lat="44.22953" lon="6.64902">
        <ele>1876</ele>
        <time>2021-08-18T10:28:53Z</time>
      </trkpt>
      <trkpt lat="44.22958" lon="6.64891">
        <ele>1875</ele>
        <time>2021-08-18T10:29:03Z</time>
      </trkpt>
      <trkpt lat="44.22962" lon="6.64881">
        <ele>1873</ele>
        <time>2021-08-18T10:29:12Z</time>
      </trkpt>
      <trkpt lat="44.22968" lon="6.64871">
        <ele>1871</ele>
        <time>2021-08-18T10:29:21Z</time>
      </trkpt>
      <trkpt lat="44.22974" lon="6.64858">
        <ele>1869</ele>
        <time>2021-08-18T10:29:31Z</time>
      </trkpt>
      <trkpt lat="44.22979" lon="6.64843">
        <ele>1866</ele>
        <time>2021-08-18T10:29:41Z</time>
      </trkpt>
      <trkpt lat="44.22981" lon="6.64829">
        <ele>1866</ele>
        <time>2021-08-18T10:29:50Z</time>
      </trkpt>
      <trkpt lat="44.22984" lon="6.64819">
        <ele>1866</ele>
        <time>2021-08-18T10:29:59Z</time>
      </trkpt>
      <trkpt lat="44.22986" lon="6.64809">
        <ele>1866</ele>
        <time>2021-08-18T10:30:10Z</time>
      </trkpt>
      <trkpt lat="44.22989" lon="6.64798">
        <ele>1866</ele>
        <time>2021-08-18T10:30:19Z</time>
      </trkpt>
      <trkpt lat="44.22995" lon="6.64788">
        <ele>1866</ele>
        <time>2021-08-18T10:30:29Z</time>
      </trkpt>
      <trkpt lat="44.23" lon="6.64779">
        <ele>1866</ele>
        <time>2021-08-18T10:30:39Z</time>
      </trkpt>
      <trkpt lat="44.23003" lon="6.64771">
        <ele>1865</ele>
        <time>2021-08-18T10:30:49Z</time>
      </trkpt>
      <trkpt lat="44.23007" lon="6.64765">
        <ele>1864</ele>
        <time>2021-08-18T10:30:58Z</time>
      </trkpt>
      <trkpt lat="44.23009" lon="6.64752">
        <ele>1864</ele>
        <time>2021-08-18T10:31:08Z</time>
      </trkpt>
      <trkpt lat="44.23011" lon="6.6474">
        <ele>1864</ele>
        <time>2021-08-18T10:31:18Z</time>
      </trkpt>
      <trkpt lat="44.23013" lon="6.64728">
        <ele>1864</ele>
        <time>2021-08-18T10:31:27Z</time>
      </trkpt>
      <trkpt lat="44.23016" lon="6.64716">
        <ele>1864</ele>
        <time>2021-08-18T10:31:36Z</time>
      </trkpt>
      <trkpt lat="44.2302" lon="6.64706">
        <ele>1862</ele>
        <time>2021-08-18T10:31:46Z</time>
      </trkpt>
      <trkpt lat="44.23022" lon="6.64693">
        <ele>1859</ele>
        <time>2021-08-18T10:31:55Z</time>
      </trkpt>
      <trkpt lat="44.23017" lon="6.64684">
        <ele>1857</ele>
        <time>2021-08-18T10:32:04Z</time>
      </trkpt>
      <trkpt lat="44.23018" lon="6.64673">
        <ele>1855</ele>
        <time>2021-08-18T10:32:13Z</time>
      </trkpt>
      <trkpt lat="44.23023" lon="6.64662">
        <ele>1854</ele>
        <time>2021-08-18T10:32:22Z</time>
      </trkpt>
      <trkpt lat="44.23025" lon="6.64653">
        <ele>1854</ele>
        <time>2021-08-18T10:32:32Z</time>
      </trkpt>
      <trkpt lat="44.2303" lon="6.64644">
        <ele>1854</ele>
        <time>2021-08-18T10:32:43Z</time>
      </trkpt>
      <trkpt lat="44.23034" lon="6.64633">
        <ele>1853</ele>
        <time>2021-08-18T10:32:53Z</time>
      </trkpt>
      <trkpt lat="44.23037" lon="6.64625">
        <ele>1853</ele>
        <time>2021-08-18T10:33:04Z</time>
      </trkpt>
      <trkpt lat="44.23041" lon="6.64618">
        <ele>1851</ele>
        <time>2021-08-18T10:33:14Z</time>
      </trkpt>
      <trkpt lat="44.23047" lon="6.64611">
        <ele>1850</ele>
        <time>2021-08-18T10:33:24Z</time>
      </trkpt>
      <trkpt lat="44.23052" lon="6.64607">
        <ele>1839</ele>
        <time>2021-08-18T10:33:36Z</time>
      </trkpt>
      <trkpt lat="44.23057" lon="6.64599">
        <ele>1838</ele>
        <time>2021-08-18T10:33:45Z</time>
      </trkpt>
      <trkpt lat="44.23063" lon="6.64591">
        <ele>1838</ele>
        <time>2021-08-18T10:33:54Z</time>
      </trkpt>
      <trkpt lat="44.23067" lon="6.64582">
        <ele>1836</ele>
        <time>2021-08-18T10:34:05Z</time>
      </trkpt>
      <trkpt lat="44.23071" lon="6.64574">
        <ele>1834</ele>
        <time>2021-08-18T10:34:15Z</time>
      </trkpt>
      <trkpt lat="44.23072" lon="6.64564">
        <ele>1834</ele>
        <time>2021-08-18T10:34:25Z</time>
      </trkpt>
      <trkpt lat="44.23072" lon="6.64552">
        <ele>1829</ele>
        <time>2021-08-18T10:34:34Z</time>
      </trkpt>
      <trkpt lat="44.23074" lon="6.64543">
        <ele>1828</ele>
        <time>2021-08-18T10:34:43Z</time>
      </trkpt>
      <trkpt lat="44.23077" lon="6.6453">
        <ele>1827</ele>
        <time>2021-08-18T10:34:54Z</time>
      </trkpt>
      <trkpt lat="44.23074" lon="6.64523">
        <ele>1825</ele>
        <time>2021-08-18T10:35:03Z</time>
      </trkpt>
      <trkpt lat="44.23067" lon="6.64522">
        <ele>1823</ele>
        <time>2021-08-18T10:35:13Z</time>
      </trkpt>
      <trkpt lat="44.23063" lon="6.64514">
        <ele>1823</ele>
        <time>2021-08-18T10:35:22Z</time>
      </trkpt>
      <trkpt lat="44.23063" lon="6.64502">
        <ele>1822</ele>
        <time>2021-08-18T10:35:31Z</time>
      </trkpt>
      <trkpt lat="44.23068" lon="6.64496">
        <ele>1818</ele>
        <time>2021-08-18T10:35:41Z</time>
      </trkpt>
      <trkpt lat="44.23073" lon="6.64488">
        <ele>1815</ele>
        <time>2021-08-18T10:35:51Z</time>
      </trkpt>
      <trkpt lat="44.23075" lon="6.64477">
        <ele>1814</ele>
        <time>2021-08-18T10:36:01Z</time>
      </trkpt>
      <trkpt lat="44.23073" lon="6.64467">
        <ele>1813</ele>
        <time>2021-08-18T10:36:14Z</time>
      </trkpt>
      <trkpt lat="44.23072" lon="6.64457">
        <ele>1813</ele>
        <time>2021-08-18T10:36:24Z</time>
      </trkpt>
      <trkpt lat="44.23067" lon="6.64449">
        <ele>1812</ele>
        <time>2021-08-18T10:36:34Z</time>
      </trkpt>
      <trkpt lat="44.23066" lon="6.64438">
        <ele>1811</ele>
        <time>2021-08-18T10:36:44Z</time>
      </trkpt>
      <trkpt lat="44.23062" lon="6.64426">
        <ele>1808</ele>
        <time>2021-08-18T10:36:54Z</time>
      </trkpt>
      <trkpt lat="44.23061" lon="6.64413">
        <ele>1807</ele>
        <time>2021-08-18T10:37:05Z</time>
      </trkpt>
      <trkpt lat="44.23058" lon="6.64402">
        <ele>1806</ele>
        <time>2021-08-18T10:37:15Z</time>
      </trkpt>
      <trkpt lat="44.23055" lon="6.64389">
        <ele>1806</ele>
        <time>2021-08-18T10:37:25Z</time>
      </trkpt>
      <trkpt lat="44.23051" lon="6.64378">
        <ele>1805</ele>
        <time>2021-08-18T10:37:34Z</time>
      </trkpt>
      <trkpt lat="44.23044" lon="6.64367">
        <ele>1799</ele>
        <time>2021-08-18T10:37:45Z</time>
      </trkpt>
      <trkpt lat="44.23042" lon="6.64359">
        <ele>1794</ele>
        <time>2021-08-18T10:37:55Z</time>
      </trkpt>
      <trkpt lat="44.23036" lon="6.64345">
        <ele>1793</ele>
        <time>2021-08-18T10:38:05Z</time>
      </trkpt>
      <trkpt lat="44.23032" lon="6.64334">
        <ele>1792</ele>
        <time>2021-08-18T10:38:15Z</time>
      </trkpt>
      <trkpt lat="44.23024" lon="6.6433">
        <ele>1790</ele>
        <time>2021-08-18T10:38:24Z</time>
      </trkpt>
      <trkpt lat="44.23027" lon="6.64323">
        <ele>1788</ele>
        <time>2021-08-18T10:38:35Z</time>
      </trkpt>
      <trkpt lat="44.23029" lon="6.64321">
        <ele>1786</ele>
        <time>2021-08-18T10:38:44Z</time>
      </trkpt>
      <trkpt lat="44.23034" lon="6.64317">
        <ele>1783</ele>
        <time>2021-08-18T10:38:54Z</time>
      </trkpt>
      <trkpt lat="44.23038" lon="6.64314">
        <ele>1780</ele>
        <time>2021-08-18T10:39:05Z</time>
      </trkpt>
      <trkpt lat="44.23042" lon="6.64316">
        <ele>1779</ele>
        <time>2021-08-18T10:39:16Z</time>
      </trkpt>
      <trkpt lat="44.2305" lon="6.64315">
        <ele>1779</ele>
        <time>2021-08-18T10:39:26Z</time>
      </trkpt>
      <trkpt lat="44.23057" lon="6.64312">
        <ele>1779</ele>
        <time>2021-08-18T10:39:35Z</time>
      </trkpt>
      <trkpt lat="44.23064" lon="6.64311">
        <ele>1779</ele>
        <time>2021-08-18T10:39:44Z</time>
      </trkpt>
      <trkpt lat="44.23071" lon="6.64303">
        <ele>1779</ele>
        <time>2021-08-18T10:39:53Z</time>
      </trkpt>
      <trkpt lat="44.23069" lon="6.64292">
        <ele>1775</ele>
        <time>2021-08-18T10:40:03Z</time>
      </trkpt>
      <trkpt lat="44.23066" lon="6.64284">
        <ele>1771</ele>
        <time>2021-08-18T10:40:12Z</time>
      </trkpt>
      <trkpt lat="44.23064" lon="6.64277">
        <ele>1770</ele>
        <time>2021-08-18T10:40:21Z</time>
      </trkpt>
      <trkpt lat="44.23062" lon="6.64267">
        <ele>1769</ele>
        <time>2021-08-18T10:40:30Z</time>
      </trkpt>
      <trkpt lat="44.23057" lon="6.64259">
        <ele>1767</ele>
        <time>2021-08-18T10:40:42Z</time>
      </trkpt>
      <trkpt lat="44.23048" lon="6.64258">
        <ele>1764</ele>
        <time>2021-08-18T10:40:53Z</time>
      </trkpt>
      <trkpt lat="44.23043" lon="6.64256">
        <ele>1764</ele>
        <time>2021-08-18T10:41:02Z</time>
      </trkpt>
      <trkpt lat="44.23036" lon="6.64252">
        <ele>1764</ele>
        <time>2021-08-18T10:41:13Z</time>
      </trkpt>
      <trkpt lat="44.23032" lon="6.64245">
        <ele>1763</ele>
        <time>2021-08-18T10:41:24Z</time>
      </trkpt>
      <trkpt lat="44.23032" lon="6.64237">
        <ele>1760</ele>
        <time>2021-08-18T10:41:34Z</time>
      </trkpt>
      <trkpt lat="44.23035" lon="6.64235">
        <ele>1758</ele>
        <time>2021-08-18T10:41:45Z</time>
      </trkpt>
      <trkpt lat="44.2304" lon="6.6423">
        <ele>1756</ele>
        <time>2021-08-18T10:41:56Z</time>
      </trkpt>
      <trkpt lat="44.23042" lon="6.64223">
        <ele>1754</ele>
        <time>2021-08-18T10:42:05Z</time>
      </trkpt>
      <trkpt lat="44.23044" lon="6.64218">
        <ele>1751</ele>
        <time>2021-08-18T10:42:16Z</time>
      </trkpt>
      <trkpt lat="44.23051" lon="6.64213">
        <ele>1750</ele>
        <time>2021-08-18T10:42:26Z</time>
      </trkpt>
      <trkpt lat="44.23056" lon="6.64202">
        <ele>1749</ele>
        <time>2021-08-18T10:42:36Z</time>
      </trkpt>
      <trkpt lat="44.23065" lon="6.64195">
        <ele>1748</ele>
        <time>2021-08-18T10:42:46Z</time>
      </trkpt>
      <trkpt lat="44.23074" lon="6.64189">
        <ele>1747</ele>
        <time>2021-08-18T10:42:56Z</time>
      </trkpt>
      <trkpt lat="44.23082" lon="6.64188">
        <ele>1746</ele>
        <time>2021-08-18T10:43:06Z</time>
      </trkpt>
      <trkpt lat="44.23091" lon="6.6419">
        <ele>1744</ele>
        <time>2021-08-18T10:43:16Z</time>
      </trkpt>
      <trkpt lat="44.23099" lon="6.64193">
        <ele>1744</ele>
        <time>2021-08-18T10:43:25Z</time>
      </trkpt>
      <trkpt lat="44.23109" lon="6.64199">
        <ele>1744</ele>
        <time>2021-08-18T10:43:35Z</time>
      </trkpt>
      <trkpt lat="44.23115" lon="6.64205">
        <ele>1744</ele>
        <time>2021-08-18T10:43:44Z</time>
      </trkpt>
      <trkpt lat="44.23121" lon="6.64217">
        <ele>1741</ele>
        <time>2021-08-18T10:43:54Z</time>
      </trkpt>
      <trkpt lat="44.23124" lon="6.6423">
        <ele>1735</ele>
        <time>2021-08-18T10:44:04Z</time>
      </trkpt>
      <trkpt lat="44.23133" lon="6.64229">
        <ele>1732</ele>
        <time>2021-08-18T10:44:14Z</time>
      </trkpt>
      <trkpt lat="44.23141" lon="6.64228">
        <ele>1732</ele>
        <time>2021-08-18T10:44:23Z</time>
      </trkpt>
      <trkpt lat="44.2315" lon="6.64234">
        <ele>1732</ele>
        <time>2021-08-18T10:44:34Z</time>
      </trkpt>
      <trkpt lat="44.23158" lon="6.6424">
        <ele>1732</ele>
        <time>2021-08-18T10:44:43Z</time>
      </trkpt>
      <trkpt lat="44.23162" lon="6.64245">
        <ele>1732</ele>
        <time>2021-08-18T10:44:52Z</time>
      </trkpt>
      <trkpt lat="44.23168" lon="6.64251">
        <ele>1736</ele>
        <time>2021-08-18T10:45:02Z</time>
      </trkpt>
      <trkpt lat="44.23172" lon="6.64255">
        <ele>1739</ele>
        <time>2021-08-18T10:45:12Z</time>
      </trkpt>
      <trkpt lat="44.23176" lon="6.64261">
        <ele>1742</ele>
        <time>2021-08-18T10:45:21Z</time>
      </trkpt>
      <trkpt lat="44.2318" lon="6.64269">
        <ele>1743</ele>
        <time>2021-08-18T10:45:31Z</time>
      </trkpt>
      <trkpt lat="44.23183" lon="6.64279">
        <ele>1743</ele>
        <time>2021-08-18T10:45:41Z</time>
      </trkpt>
      <trkpt lat="44.23184" lon="6.64288">
        <ele>1743</ele>
        <time>2021-08-18T10:45:51Z</time>
      </trkpt>
      <trkpt lat="44.23187" lon="6.64295">
        <ele>1743</ele>
        <time>2021-08-18T10:46:00Z</time>
      </trkpt>
      <trkpt lat="44.23188" lon="6.64306">
        <ele>1743</ele>
        <time>2021-08-18T10:46:09Z</time>
      </trkpt>
      <trkpt lat="44.23189" lon="6.64315">
        <ele>1743</ele>
        <time>2021-08-18T10:46:19Z</time>
      </trkpt>
      <trkpt lat="44.23192" lon="6.64322">
        <ele>1743</ele>
        <time>2021-08-18T10:46:29Z</time>
      </trkpt>
      <trkpt lat="44.23193" lon="6.64331">
        <ele>1743</ele>
        <time>2021-08-18T10:46:39Z</time>
      </trkpt>
      <trkpt lat="44.23194" lon="6.64341">
        <ele>1745</ele>
        <time>2021-08-18T10:46:48Z</time>
      </trkpt>
      <trkpt lat="44.23195" lon="6.64347">
        <ele>1750</ele>
        <time>2021-08-18T10:46:58Z</time>
      </trkpt>
      <trkpt lat="44.23196" lon="6.64358">
        <ele>1750</ele>
        <time>2021-08-18T10:47:08Z</time>
      </trkpt>
      <trkpt lat="44.232" lon="6.64364">
        <ele>1750</ele>
        <time>2021-08-18T10:47:17Z</time>
      </trkpt>
      <trkpt lat="44.23202" lon="6.64373">
        <ele>1750</ele>
        <time>2021-08-18T10:47:27Z</time>
      </trkpt>
      <trkpt lat="44.23207" lon="6.64378">
        <ele>1750</ele>
        <time>2021-08-18T10:47:36Z</time>
      </trkpt>
      <trkpt lat="44.23211" lon="6.64382">
        <ele>1751</ele>
        <time>2021-08-18T10:47:46Z</time>
      </trkpt>
      <trkpt lat="44.23216" lon="6.64389">
        <ele>1754</ele>
        <time>2021-08-18T10:47:56Z</time>
      </trkpt>
      <trkpt lat="44.23221" lon="6.64397">
        <ele>1755</ele>
        <time>2021-08-18T10:48:06Z</time>
      </trkpt>
      <trkpt lat="44.23217" lon="6.64403">
        <ele>1755</ele>
        <time>2021-08-18T10:48:15Z</time>
      </trkpt>
      <trkpt lat="44.23216" lon="6.64406">
        <ele>1755</ele>
        <time>2021-08-18T10:48:25Z</time>
      </trkpt>
      <trkpt lat="44.23218" lon="6.64415">
        <ele>1757</ele>
        <time>2021-08-18T10:48:35Z</time>
      </trkpt>
      <trkpt lat="44.23222" lon="6.64425">
        <ele>1760</ele>
        <time>2021-08-18T10:48:45Z</time>
      </trkpt>
      <trkpt lat="44.23225" lon="6.6443">
        <ele>1760</ele>
        <time>2021-08-18T10:48:55Z</time>
      </trkpt>
      <trkpt lat="44.23224" lon="6.64433">
        <ele>1760</ele>
        <time>2021-08-18T10:49:06Z</time>
      </trkpt>
      <trkpt lat="44.23226" lon="6.64442">
        <ele>1764</ele>
        <time>2021-08-18T10:49:15Z</time>
      </trkpt>
      <trkpt lat="44.23226" lon="6.64437">
        <ele>1765</ele>
        <time>2021-08-18T10:49:24Z</time>
      </trkpt>
      <trkpt lat="44.23222" lon="6.64429">
        <ele>1765</ele>
        <time>2021-08-18T10:49:35Z</time>
      </trkpt>
      <trkpt lat="44.23222" lon="6.6443">
        <ele>1761</ele>
        <time>2021-08-18T10:50:05Z</time>
      </trkpt>
      <trkpt lat="44.23224" lon="6.64431">
        <ele>1763</ele>
        <time>2021-08-18T10:50:15Z</time>
      </trkpt>
      <trkpt lat="44.23228" lon="6.64438">
        <ele>1769</ele>
        <time>2021-08-18T10:50:24Z</time>
      </trkpt>
      <trkpt lat="44.23233" lon="6.64442">
        <ele>1773</ele>
        <time>2021-08-18T10:50:33Z</time>
      </trkpt>
      <trkpt lat="44.23238" lon="6.64452">
        <ele>1773</ele>
        <time>2021-08-18T10:50:43Z</time>
      </trkpt>
      <trkpt lat="44.23243" lon="6.64464">
        <ele>1773</ele>
        <time>2021-08-18T10:50:52Z</time>
      </trkpt>
      <trkpt lat="44.23245" lon="6.64477">
        <ele>1773</ele>
        <time>2021-08-18T10:51:02Z</time>
      </trkpt>
      <trkpt lat="44.23251" lon="6.64488">
        <ele>1771</ele>
        <time>2021-08-18T10:51:11Z</time>
      </trkpt>
      <trkpt lat="44.23257" lon="6.64498">
        <ele>1770</ele>
        <time>2021-08-18T10:51:21Z</time>
      </trkpt>
      <trkpt lat="44.23262" lon="6.64506">
        <ele>1769</ele>
        <time>2021-08-18T10:51:30Z</time>
      </trkpt>
      <trkpt lat="44.23267" lon="6.64513">
        <ele>1769</ele>
        <time>2021-08-18T10:51:40Z</time>
      </trkpt>
      <trkpt lat="44.23275" lon="6.64519">
        <ele>1769</ele>
        <time>2021-08-18T10:51:50Z</time>
      </trkpt>
      <trkpt lat="44.23283" lon="6.64524">
        <ele>1769</ele>
        <time>2021-08-18T10:51:59Z</time>
      </trkpt>
      <trkpt lat="44.23287" lon="6.64529">
        <ele>1769</ele>
        <time>2021-08-18T10:52:08Z</time>
      </trkpt>
      <trkpt lat="44.23294" lon="6.6453">
        <ele>1769</ele>
        <time>2021-08-18T10:52:17Z</time>
      </trkpt>
      <trkpt lat="44.23304" lon="6.64535">
        <ele>1769</ele>
        <time>2021-08-18T10:52:26Z</time>
      </trkpt>
      <trkpt lat="44.23313" lon="6.64542">
        <ele>1769</ele>
        <time>2021-08-18T10:52:35Z</time>
      </trkpt>
      <trkpt lat="44.23322" lon="6.64549">
        <ele>1768</ele>
        <time>2021-08-18T10:52:44Z</time>
      </trkpt>
      <trkpt lat="44.23331" lon="6.64561">
        <ele>1765</ele>
        <time>2021-08-18T10:52:53Z</time>
      </trkpt>
      <trkpt lat="44.23337" lon="6.64567">
        <ele>1763</ele>
        <time>2021-08-18T10:53:04Z</time>
      </trkpt>
      <trkpt lat="44.23338" lon="6.64572">
        <ele>1763</ele>
        <time>2021-08-18T10:53:15Z</time>
      </trkpt>
      <trkpt lat="44.2334" lon="6.64574">
        <ele>1762</ele>
        <time>2021-08-18T10:53:25Z</time>
      </trkpt>
      <trkpt lat="44.23342" lon="6.64574">
        <ele>1762</ele>
        <time>2021-08-18T10:53:40Z</time>
      </trkpt>
      <trkpt lat="44.23347" lon="6.64575">
        <ele>1765</ele>
        <time>2021-08-18T10:53:51Z</time>
      </trkpt>
      <trkpt lat="44.23352" lon="6.6458">
        <ele>1765</ele>
        <time>2021-08-18T10:54:03Z</time>
      </trkpt>
      <trkpt lat="44.23356" lon="6.64583">
        <ele>1766</ele>
        <time>2021-08-18T10:54:12Z</time>
      </trkpt>
      <trkpt lat="44.23361" lon="6.64588">
        <ele>1766</ele>
        <time>2021-08-18T10:54:21Z</time>
      </trkpt>
      <trkpt lat="44.23369" lon="6.64595">
        <ele>1766</ele>
        <time>2021-08-18T10:54:31Z</time>
      </trkpt>
      <trkpt lat="44.23375" lon="6.64604">
        <ele>1764</ele>
        <time>2021-08-18T10:54:41Z</time>
      </trkpt>
      <trkpt lat="44.23378" lon="6.6461">
        <ele>1762</ele>
        <time>2021-08-18T10:54:51Z</time>
      </trkpt>
      <trkpt lat="44.23384" lon="6.64622">
        <ele>1761</ele>
        <time>2021-08-18T10:55:00Z</time>
      </trkpt>
      <trkpt lat="44.23394" lon="6.64628">
        <ele>1761</ele>
        <time>2021-08-18T10:55:10Z</time>
      </trkpt>
      <trkpt lat="44.23397" lon="6.64638">
        <ele>1758</ele>
        <time>2021-08-18T10:55:20Z</time>
      </trkpt>
      <trkpt lat="44.23402" lon="6.64646">
        <ele>1755</ele>
        <time>2021-08-18T10:55:30Z</time>
      </trkpt>
      <trkpt lat="44.23408" lon="6.64657">
        <ele>1753</ele>
        <time>2021-08-18T10:55:39Z</time>
      </trkpt>
      <trkpt lat="44.23412" lon="6.6467">
        <ele>1752</ele>
        <time>2021-08-18T10:55:48Z</time>
      </trkpt>
      <trkpt lat="44.23417" lon="6.64676">
        <ele>1752</ele>
        <time>2021-08-18T10:55:57Z</time>
      </trkpt>
      <trkpt lat="44.23423" lon="6.64685">
        <ele>1752</ele>
        <time>2021-08-18T10:56:07Z</time>
      </trkpt>
      <trkpt lat="44.23429" lon="6.64693">
        <ele>1755</ele>
        <time>2021-08-18T10:56:17Z</time>
      </trkpt>
      <trkpt lat="44.23436" lon="6.64699">
        <ele>1756</ele>
        <time>2021-08-18T10:56:28Z</time>
      </trkpt>
      <trkpt lat="44.23439" lon="6.64702">
        <ele>1756</ele>
        <time>2021-08-18T10:56:37Z</time>
      </trkpt>
      <trkpt lat="44.23445" lon="6.64712">
        <ele>1754</ele>
        <time>2021-08-18T10:56:47Z</time>
      </trkpt>
      <trkpt lat="44.23449" lon="6.64715">
        <ele>1751</ele>
        <time>2021-08-18T10:57:03Z</time>
      </trkpt>
      <trkpt lat="44.23455" lon="6.64727">
        <ele>1751</ele>
        <time>2021-08-18T10:57:13Z</time>
      </trkpt>
      <trkpt lat="44.23461" lon="6.64735">
        <ele>1750</ele>
        <time>2021-08-18T10:57:22Z</time>
      </trkpt>
      <trkpt lat="44.23465" lon="6.64741">
        <ele>1750</ele>
        <time>2021-08-18T10:57:31Z</time>
      </trkpt>
      <trkpt lat="44.23467" lon="6.64749">
        <ele>1745</ele>
        <time>2021-08-18T10:57:42Z</time>
      </trkpt>
      <trkpt lat="44.2347" lon="6.64752">
        <ele>1746</ele>
        <time>2021-08-18T10:57:52Z</time>
      </trkpt>
      <trkpt lat="44.23472" lon="6.64749">
        <ele>1751</ele>
        <time>2021-08-18T10:58:01Z</time>
      </trkpt>
      <trkpt lat="44.23476" lon="6.64759">
        <ele>1752</ele>
        <time>2021-08-18T10:58:11Z</time>
      </trkpt>
      <trkpt lat="44.23474" lon="6.64767">
        <ele>1745</ele>
        <time>2021-08-18T10:58:20Z</time>
      </trkpt>
      <trkpt lat="44.23476" lon="6.64773">
        <ele>1740</ele>
        <time>2021-08-18T10:58:30Z</time>
      </trkpt>
      <trkpt lat="44.23476" lon="6.64779">
        <ele>1738</ele>
        <time>2021-08-18T10:58:39Z</time>
      </trkpt>
      <trkpt lat="44.23476" lon="6.64775">
        <ele>1738</ele>
        <time>2021-08-18T10:58:49Z</time>
      </trkpt>
      <trkpt lat="44.23479" lon="6.64767">
        <ele>1737</ele>
        <time>2021-08-18T10:58:59Z</time>
      </trkpt>
      <trkpt lat="44.23483" lon="6.64759">
        <ele>1736</ele>
        <time>2021-08-18T10:59:09Z</time>
      </trkpt>
      <trkpt lat="44.23489" lon="6.64756">
        <ele>1735</ele>
        <time>2021-08-18T10:59:18Z</time>
      </trkpt>
      <trkpt lat="44.23491" lon="6.64751">
        <ele>1732</ele>
        <time>2021-08-18T10:59:30Z</time>
      </trkpt>
      <trkpt lat="44.23495" lon="6.64751">
        <ele>1732</ele>
        <time>2021-08-18T10:59:40Z</time>
      </trkpt>
      <trkpt lat="44.23501" lon="6.64745">
        <ele>1729</ele>
        <time>2021-08-18T10:59:50Z</time>
      </trkpt>
      <trkpt lat="44.235" lon="6.64735">
        <ele>1727</ele>
        <time>2021-08-18T11:00:00Z</time>
      </trkpt>
      <trkpt lat="44.23503" lon="6.64725">
        <ele>1728</ele>
        <time>2021-08-18T11:00:10Z</time>
      </trkpt>
      <trkpt lat="44.23511" lon="6.64717">
        <ele>1727</ele>
        <time>2021-08-18T11:00:19Z</time>
      </trkpt>
      <trkpt lat="44.23514" lon="6.64717">
        <ele>1727</ele>
        <time>2021-08-18T11:00:30Z</time>
      </trkpt>
      <trkpt lat="44.23514" lon="6.64725">
        <ele>1726</ele>
        <time>2021-08-18T11:00:39Z</time>
      </trkpt>
      <trkpt lat="44.23514" lon="6.64733">
        <ele>1722</ele>
        <time>2021-08-18T11:00:49Z</time>
      </trkpt>
      <trkpt lat="44.23513" lon="6.64743">
        <ele>1717</ele>
        <time>2021-08-18T11:00:59Z</time>
      </trkpt>
      <trkpt lat="44.23516" lon="6.64746">
        <ele>1716</ele>
        <time>2021-08-18T11:01:08Z</time>
      </trkpt>
      <trkpt lat="44.23518" lon="6.64742">
        <ele>1716</ele>
        <time>2021-08-18T11:01:18Z</time>
      </trkpt>
      <trkpt lat="44.23518" lon="6.64754">
        <ele>1716</ele>
        <time>2021-08-18T11:01:28Z</time>
      </trkpt>
      <trkpt lat="44.23515" lon="6.64762">
        <ele>1715</ele>
        <time>2021-08-18T11:01:37Z</time>
      </trkpt>
      <trkpt lat="44.23513" lon="6.64768">
        <ele>1712</ele>
        <time>2021-08-18T11:01:46Z</time>
      </trkpt>
      <trkpt lat="44.23512" lon="6.64776">
        <ele>1707</ele>
        <time>2021-08-18T11:01:55Z</time>
      </trkpt>
      <trkpt lat="44.23511" lon="6.64784">
        <ele>1703</ele>
        <time>2021-08-18T11:02:07Z</time>
      </trkpt>
      <trkpt lat="44.23517" lon="6.64781">
        <ele>1703</ele>
        <time>2021-08-18T11:02:17Z</time>
      </trkpt>
      <trkpt lat="44.23523" lon="6.64779">
        <ele>1703</ele>
        <time>2021-08-18T11:02:26Z</time>
      </trkpt>
      <trkpt lat="44.23529" lon="6.64778">
        <ele>1702</ele>
        <time>2021-08-18T11:02:35Z</time>
      </trkpt>
      <trkpt lat="44.23527" lon="6.64783">
        <ele>1699</ele>
        <time>2021-08-18T11:02:46Z</time>
      </trkpt>
      <trkpt lat="44.23525" lon="6.64788">
        <ele>1696</ele>
        <time>2021-08-18T11:02:55Z</time>
      </trkpt>
      <trkpt lat="44.23523" lon="6.64793">
        <ele>1692</ele>
        <time>2021-08-18T11:03:05Z</time>
      </trkpt>
      <trkpt lat="44.23521" lon="6.64803">
        <ele>1688</ele>
        <time>2021-08-18T11:03:15Z</time>
      </trkpt>
      <trkpt lat="44.2352" lon="6.6481">
        <ele>1686</ele>
        <time>2021-08-18T11:03:24Z</time>
      </trkpt>
      <trkpt lat="44.23513" lon="6.64818">
        <ele>1685</ele>
        <time>2021-08-18T11:03:34Z</time>
      </trkpt>
      <trkpt lat="44.2351" lon="6.64823">
        <ele>1685</ele>
        <time>2021-08-18T11:03:44Z</time>
      </trkpt>
      <trkpt lat="44.23509" lon="6.64828">
        <ele>1685</ele>
        <time>2021-08-18T11:03:53Z</time>
      </trkpt>
      <trkpt lat="44.23507" lon="6.6483">
        <ele>1684</ele>
        <time>2021-08-18T11:04:12Z</time>
      </trkpt>
      <trkpt lat="44.23507" lon="6.64834">
        <ele>1683</ele>
        <time>2021-08-18T11:04:29Z</time>
      </trkpt>
      <trkpt lat="44.23508" lon="6.64834">
        <ele>1681</ele>
        <time>2021-08-18T11:04:45Z</time>
      </trkpt>
      <trkpt lat="44.2351" lon="6.64833">
        <ele>1679</ele>
        <time>2021-08-18T11:05:00Z</time>
      </trkpt>
      <trkpt lat="44.23512" lon="6.64833">
        <ele>1679</ele>
        <time>2021-08-18T11:05:21Z</time>
      </trkpt>
      <trkpt lat="44.23514" lon="6.64833">
        <ele>1676</ele>
        <time>2021-08-18T11:05:34Z</time>
      </trkpt>
      <trkpt lat="44.23515" lon="6.64832">
        <ele>1676</ele>
        <time>2021-08-18T11:05:49Z</time>
      </trkpt>
      <trkpt lat="44.23521" lon="6.6483">
        <ele>1674</ele>
        <time>2021-08-18T11:05:58Z</time>
      </trkpt>
      <trkpt lat="44.23526" lon="6.64824">
        <ele>1673</ele>
        <time>2021-08-18T11:06:07Z</time>
      </trkpt>
      <trkpt lat="44.23532" lon="6.64817">
        <ele>1673</ele>
        <time>2021-08-18T11:06:17Z</time>
      </trkpt>
      <trkpt lat="44.23538" lon="6.64815">
        <ele>1671</ele>
        <time>2021-08-18T11:06:27Z</time>
      </trkpt>
      <trkpt lat="44.23546" lon="6.64812">
        <ele>1670</ele>
        <time>2021-08-18T11:06:37Z</time>
      </trkpt>
      <trkpt lat="44.2355" lon="6.64808">
        <ele>1669</ele>
        <time>2021-08-18T11:06:47Z</time>
      </trkpt>
      <trkpt lat="44.23557" lon="6.64813">
        <ele>1669</ele>
        <time>2021-08-18T11:06:57Z</time>
      </trkpt>
      <trkpt lat="44.23559" lon="6.6482">
        <ele>1667</ele>
        <time>2021-08-18T11:07:09Z</time>
      </trkpt>
      <trkpt lat="44.2356" lon="6.64823">
        <ele>1664</ele>
        <time>2021-08-18T11:07:21Z</time>
      </trkpt>
      <trkpt lat="44.23561" lon="6.64821">
        <ele>1664</ele>
        <time>2021-08-18T11:07:31Z</time>
      </trkpt>
      <trkpt lat="44.23564" lon="6.64818">
        <ele>1664</ele>
        <time>2021-08-18T11:07:40Z</time>
      </trkpt>
      <trkpt lat="44.23567" lon="6.64819">
        <ele>1664</ele>
        <time>2021-08-18T11:07:52Z</time>
      </trkpt>
      <trkpt lat="44.23572" lon="6.64821">
        <ele>1664</ele>
        <time>2021-08-18T11:08:02Z</time>
      </trkpt>
      <trkpt lat="44.23576" lon="6.64819">
        <ele>1664</ele>
        <time>2021-08-18T11:08:12Z</time>
      </trkpt>
      <trkpt lat="44.23579" lon="6.64827">
        <ele>1663</ele>
        <time>2021-08-18T11:08:22Z</time>
      </trkpt>
      <trkpt lat="44.2358" lon="6.64836">
        <ele>1663</ele>
        <time>2021-08-18T11:08:32Z</time>
      </trkpt>
      <trkpt lat="44.23581" lon="6.64839">
        <ele>1663</ele>
        <time>2021-08-18T11:08:44Z</time>
      </trkpt>
      <trkpt lat="44.23582" lon="6.64844">
        <ele>1663</ele>
        <time>2021-08-18T11:08:55Z</time>
      </trkpt>
      <trkpt lat="44.23585" lon="6.64839">
        <ele>1663</ele>
        <time>2021-08-18T11:09:04Z</time>
      </trkpt>
      <trkpt lat="44.23589" lon="6.64832">
        <ele>1663</ele>
        <time>2021-08-18T11:09:14Z</time>
      </trkpt>
      <trkpt lat="44.23593" lon="6.64825">
        <ele>1663</ele>
        <time>2021-08-18T11:09:25Z</time>
      </trkpt>
      <trkpt lat="44.23593" lon="6.64833">
        <ele>1663</ele>
        <time>2021-08-18T11:09:35Z</time>
      </trkpt>
      <trkpt lat="44.23594" lon="6.64841">
        <ele>1663</ele>
        <time>2021-08-18T11:09:44Z</time>
      </trkpt>
      <trkpt lat="44.23597" lon="6.64835">
        <ele>1664</ele>
        <time>2021-08-18T11:09:53Z</time>
      </trkpt>
      <trkpt lat="44.23599" lon="6.64837">
        <ele>1665</ele>
        <time>2021-08-18T11:10:04Z</time>
      </trkpt>
      <trkpt lat="44.23597" lon="6.64846">
        <ele>1666</ele>
        <time>2021-08-18T11:10:13Z</time>
      </trkpt>
      <trkpt lat="44.23598" lon="6.64849">
        <ele>1671</ele>
        <time>2021-08-18T11:10:24Z</time>
      </trkpt>
      <trkpt lat="44.23603" lon="6.64848">
        <ele>1674</ele>
        <time>2021-08-18T11:10:33Z</time>
      </trkpt>
      <trkpt lat="44.23609" lon="6.64843">
        <ele>1674</ele>
        <time>2021-08-18T11:10:44Z</time>
      </trkpt>
      <trkpt lat="44.23612" lon="6.64843">
        <ele>1674</ele>
        <time>2021-08-18T11:11:01Z</time>
      </trkpt>
      <trkpt lat="44.23611" lon="6.64842">
        <ele>1674</ele>
        <time>2021-08-18T11:11:17Z</time>
      </trkpt>
      <trkpt lat="44.23611" lon="6.6484">
        <ele>1674</ele>
        <time>2021-08-18T11:11:41Z</time>
      </trkpt>
      <trkpt lat="44.23616" lon="6.64832">
        <ele>1674</ele>
        <time>2021-08-18T11:11:50Z</time>
      </trkpt>
      <trkpt lat="44.23621" lon="6.64822">
        <ele>1674</ele>
        <time>2021-08-18T11:11:59Z</time>
      </trkpt>
      <trkpt lat="44.23626" lon="6.64811">
        <ele>1674</ele>
        <time>2021-08-18T11:12:09Z</time>
      </trkpt>
      <trkpt lat="44.23633" lon="6.64803">
        <ele>1674</ele>
        <time>2021-08-18T11:12:25Z</time>
      </trkpt>
      <trkpt lat="44.23639" lon="6.64794">
        <ele>1675</ele>
        <time>2021-08-18T11:12:35Z</time>
      </trkpt>
      <trkpt lat="44.23646" lon="6.64786">
        <ele>1675</ele>
        <time>2021-08-18T11:12:45Z</time>
      </trkpt>
      <trkpt lat="44.23654" lon="6.64782">
        <ele>1675</ele>
        <time>2021-08-18T11:12:54Z</time>
      </trkpt>
      <trkpt lat="44.23658" lon="6.64773">
        <ele>1675</ele>
        <time>2021-08-18T11:13:03Z</time>
      </trkpt>
      <trkpt lat="44.23661" lon="6.64766">
        <ele>1675</ele>
        <time>2021-08-18T11:13:12Z</time>
      </trkpt>
      <trkpt lat="44.23666" lon="6.64757">
        <ele>1676</ele>
        <time>2021-08-18T11:13:22Z</time>
      </trkpt>
      <trkpt lat="44.23672" lon="6.64751">
        <ele>1677</ele>
        <time>2021-08-18T11:13:32Z</time>
      </trkpt>
      <trkpt lat="44.23679" lon="6.64747">
        <ele>1677</ele>
        <time>2021-08-18T11:13:43Z</time>
      </trkpt>
      <trkpt lat="44.2368" lon="6.64743">
        <ele>1678</ele>
        <time>2021-08-18T11:13:58Z</time>
      </trkpt>
      <trkpt lat="44.23687" lon="6.64732">
        <ele>1681</ele>
        <time>2021-08-18T11:14:08Z</time>
      </trkpt>
      <trkpt lat="44.23694" lon="6.64724">
        <ele>1682</ele>
        <time>2021-08-18T11:14:18Z</time>
      </trkpt>
      <trkpt lat="44.23702" lon="6.64718">
        <ele>1682</ele>
        <time>2021-08-18T11:14:28Z</time>
      </trkpt>
      <trkpt lat="44.2371" lon="6.64714">
        <ele>1682</ele>
        <time>2021-08-18T11:14:38Z</time>
      </trkpt>
      <trkpt lat="44.23717" lon="6.64712">
        <ele>1682</ele>
        <time>2021-08-18T11:14:48Z</time>
      </trkpt>
      <trkpt lat="44.23724" lon="6.64708">
        <ele>1683</ele>
        <time>2021-08-18T11:15:00Z</time>
      </trkpt>
      <trkpt lat="44.2373" lon="6.64704">
        <ele>1683</ele>
        <time>2021-08-18T11:15:09Z</time>
      </trkpt>
      <trkpt lat="44.23738" lon="6.647">
        <ele>1684</ele>
        <time>2021-08-18T11:15:19Z</time>
      </trkpt>
      <trkpt lat="44.23746" lon="6.64695">
        <ele>1684</ele>
        <time>2021-08-18T11:15:29Z</time>
      </trkpt>
      <trkpt lat="44.23752" lon="6.64693">
        <ele>1684</ele>
        <time>2021-08-18T11:15:38Z</time>
      </trkpt>
      <trkpt lat="44.23751" lon="6.64694">
        <ele>1685</ele>
        <time>2021-08-18T11:15:59Z</time>
      </trkpt>
      <trkpt lat="44.2375" lon="6.64696">
        <ele>1687</ele>
        <time>2021-08-18T11:16:34Z</time>
      </trkpt>
      <trkpt lat="44.23754" lon="6.64696">
        <ele>1687</ele>
        <time>2021-08-18T11:16:57Z</time>
      </trkpt>
      <trkpt lat="44.23759" lon="6.64689">
        <ele>1687</ele>
        <time>2021-08-18T11:17:06Z</time>
      </trkpt>
      <trkpt lat="44.23767" lon="6.64681">
        <ele>1687</ele>
        <time>2021-08-18T11:17:16Z</time>
      </trkpt>
      <trkpt lat="44.23776" lon="6.64676">
        <ele>1687</ele>
        <time>2021-08-18T11:17:26Z</time>
      </trkpt>
      <trkpt lat="44.23785" lon="6.64672">
        <ele>1687</ele>
        <time>2021-08-18T11:17:43Z</time>
      </trkpt>
      <trkpt lat="44.23794" lon="6.6467">
        <ele>1687</ele>
        <time>2021-08-18T11:17:53Z</time>
      </trkpt>
      <trkpt lat="44.23803" lon="6.64668">
        <ele>1687</ele>
        <time>2021-08-18T11:18:03Z</time>
      </trkpt>
      <trkpt lat="44.2381" lon="6.64667">
        <ele>1687</ele>
        <time>2021-08-18T11:18:13Z</time>
      </trkpt>
      <trkpt lat="44.23817" lon="6.64662">
        <ele>1687</ele>
        <time>2021-08-18T11:18:23Z</time>
      </trkpt>
      <trkpt lat="44.23822" lon="6.64652">
        <ele>1687</ele>
        <time>2021-08-18T11:18:33Z</time>
      </trkpt>
      <trkpt lat="44.23827" lon="6.64644">
        <ele>1687</ele>
        <time>2021-08-18T11:18:43Z</time>
      </trkpt>
      <trkpt lat="44.23832" lon="6.64636">
        <ele>1687</ele>
        <time>2021-08-18T11:18:54Z</time>
      </trkpt>
      <trkpt lat="44.23835" lon="6.64631">
        <ele>1687</ele>
        <time>2021-08-18T11:19:06Z</time>
      </trkpt>
      <trkpt lat="44.2384" lon="6.64622">
        <ele>1687</ele>
        <time>2021-08-18T11:19:17Z</time>
      </trkpt>
      <trkpt lat="44.23845" lon="6.64615">
        <ele>1687</ele>
        <time>2021-08-18T11:19:26Z</time>
      </trkpt>
      <trkpt lat="44.23851" lon="6.64607">
        <ele>1687</ele>
        <time>2021-08-18T11:19:36Z</time>
      </trkpt>
      <trkpt lat="44.23857" lon="6.64598">
        <ele>1687</ele>
        <time>2021-08-18T11:19:46Z</time>
      </trkpt>
      <trkpt lat="44.23863" lon="6.64593">
        <ele>1687</ele>
        <time>2021-08-18T11:19:56Z</time>
      </trkpt>
      <trkpt lat="44.23869" lon="6.6459">
        <ele>1687</ele>
        <time>2021-08-18T11:20:05Z</time>
      </trkpt>
      <trkpt lat="44.23877" lon="6.64582">
        <ele>1687</ele>
        <time>2021-08-18T11:20:15Z</time>
      </trkpt>
      <trkpt lat="44.23884" lon="6.64576">
        <ele>1687</ele>
        <time>2021-08-18T11:20:25Z</time>
      </trkpt>
      <trkpt lat="44.23889" lon="6.64571">
        <ele>1687</ele>
        <time>2021-08-18T11:20:35Z</time>
      </trkpt>
      <trkpt lat="44.23895" lon="6.64564">
        <ele>1687</ele>
        <time>2021-08-18T11:20:46Z</time>
      </trkpt>
      <trkpt lat="44.23898" lon="6.64557">
        <ele>1687</ele>
        <time>2021-08-18T11:20:55Z</time>
      </trkpt>
      <trkpt lat="44.23903" lon="6.64553">
        <ele>1688</ele>
        <time>2021-08-18T11:21:04Z</time>
      </trkpt>
      <trkpt lat="44.23907" lon="6.64548">
        <ele>1690</ele>
        <time>2021-08-18T11:21:14Z</time>
      </trkpt>
      <trkpt lat="44.23912" lon="6.64543">
        <ele>1692</ele>
        <time>2021-08-18T11:21:23Z</time>
      </trkpt>
      <trkpt lat="44.23918" lon="6.64542">
        <ele>1692</ele>
        <time>2021-08-18T11:21:43Z</time>
      </trkpt>
      <trkpt lat="44.23925" lon="6.64537">
        <ele>1692</ele>
        <time>2021-08-18T11:21:53Z</time>
      </trkpt>
      <trkpt lat="44.23929" lon="6.6453">
        <ele>1692</ele>
        <time>2021-08-18T11:22:02Z</time>
      </trkpt>
      <trkpt lat="44.23932" lon="6.64522">
        <ele>1692</ele>
        <time>2021-08-18T11:22:12Z</time>
      </trkpt>
      <trkpt lat="44.23935" lon="6.64511">
        <ele>1691</ele>
        <time>2021-08-18T11:22:22Z</time>
      </trkpt>
      <trkpt lat="44.23938" lon="6.645">
        <ele>1690</ele>
        <time>2021-08-18T11:22:32Z</time>
      </trkpt>
      <trkpt lat="44.23938" lon="6.64487">
        <ele>1689</ele>
        <time>2021-08-18T11:22:42Z</time>
      </trkpt>
      <trkpt lat="44.23939" lon="6.64481">
        <ele>1688</ele>
        <time>2021-08-18T11:23:07Z</time>
      </trkpt>
      <trkpt lat="44.23938" lon="6.6448">
        <ele>1688</ele>
        <time>2021-08-18T11:23:22Z</time>
      </trkpt>
      <trkpt lat="44.23936" lon="6.64476">
        <ele>1688</ele>
        <time>2021-08-18T11:23:30Z</time>
      </trkpt>
    </trkseg>
  </trk>
</gpx>